Wetterdaten: Montag, 25.05.2020
Datum Zeit Temp. Aussen Temp. o. S. Temp +5cm Feuchte Auss Luftdruck Regen Sonnenschein Regendauer Solar Windben Empfang
25.05.2020 00:00 12,9 C 11,7 C 11,7 C 96 % 1031,9 hPa 0,0 l/m 0 min 0 min 0 W/m 0,0 km/h (0 Bft) 94,29 %
25.05.2020 00:02 12,9 C 11,7 C 11,7 C 96 % 1031,9 hPa 0,0 l/m 0 min 0 min 0 W/m 0,0 km/h (0 Bft) 14,29 %
25.05.2020 00:04 12,9 C 11,7 C 11,7 C 96 % 1031,9 hPa 0,0 l/m 0 min 0 min 0 W/m 0,0 km/h (0 Bft) 76,92 %
25.05.2020 00:08 12,9 C 11,7 C 11,7 C 96 % 1031,9 hPa 0,0 l/m 0 min 0 min 0 W/m 0,0 km/h (0 Bft) 100,00 %
25.05.2020 00:10 12,9 C 11,7 C 11,7 C 96 % 1032,0 hPa 0,0 l/m 0 min 0 min 0 W/m 3,2 km/h (1 Bft) 97,87 %
25.05.2020 00:12 12,9 C 11,7 C 11,7 C 96 % 1032,0 hPa 0,0 l/m 0 min 0 min 0 W/m 0,0 km/h (0 Bft) 100,00 %
25.05.2020 00:14 12,9 C 11,7 C 11,7 C 96 % 1031,9 hPa 0,0 l/m 0 min 0 min 0 W/m 0,0 km/h (0 Bft) 100,00 %
25.05.2020 00:16 12,9 C 11,7 C 11,7 C 96 % 1032,0 hPa 0,0 l/m 0 min 0 min 0 W/m 3,2 km/h (1 Bft) 100,00 %
25.05.2020 00:18 12,9 C 11,7 C 11,7 C 96 % 1032,0 hPa 0,0 l/m 0 min 0 min 0 W/m 0,0 km/h (0 Bft) 97,87 %
25.05.2020 00:20 12,9 C 11,7 C 11,7 C 96 % 1031,9 hPa 0,0 l/m 0 min 0 min 0 W/m 3,2 km/h (1 Bft) 100,00 %
25.05.2020 00:22 12,9 C 11,7 C 11,7 C 96 % 1032,0 hPa 0,0 l/m 0 min 0 min 0 W/m 0,0 km/h (0 Bft) 100,00 %
25.05.2020 00:24 12,9 C 11,7 C 11,7 C 96 % 1032,0 hPa 0,0 l/m 0 min 0 min 0 W/m 0,0 km/h (0 Bft) 100,00 %
25.05.2020 00:26 12,9 C 11,7 C 11,7 C 96 % 1032,0 hPa 0,0 l/m 0 min 0 min 0 W/m 3,2 km/h (1 Bft) 100,00 %
25.05.2020 00:28 12,9 C 11,7 C 11,7 C 96 % 1032,0 hPa 0,0 l/m 0 min 0 min 0 W/m 0,0 km/h (0 Bft) 100,00 %
25.05.2020 00:30 12,9 C 11,7 C 11,7 C 96 % 1032,0 hPa 0,0 l/m 0 min 0 min 0 W/m 0,0 km/h (0 Bft) 100,00 %
25.05.2020 00:32 12,9 C 11,7 C 11,7 C 96 % 1031,9 hPa 0,0 l/m 0 min 0 min 0 W/m 0,0 km/h (0 Bft) 100,00 %
25.05.2020 00:34 12,9 C 11,7 C 11,7 C 96 % 1031,9 hPa 0,0 l/m 0 min 0 min 0 W/m 0,0 km/h (0 Bft) 97,83 %
25.05.2020 00:36 12,9 C 11,7 C 11,7 C 96 % 1032,0 hPa 0,0 l/m 0 min 0 min 0 W/m 0,0 km/h (0 Bft) 100,00 %
25.05.2020 00:38 12,9 C 11,7 C 11,7 C 96 % 1031,9 hPa 0,0 l/m 0 min 0 min 0 W/m 0,0 km/h (0 Bft) 100,00 %
25.05.2020 00:40 12,9 C 11,7 C 11,7 C 96 % 1031,9 hPa 0,0 l/m 0 min 0 min 0 W/m 0,0 km/h (0 Bft) 100,00 %
25.05.2020 00:42 12,9 C 11,7 C 11,7 C 96 % 1031,9 hPa 0,0 l/m 0 min 0 min 0 W/m 0,0 km/h (0 Bft) 97,87 %
25.05.2020 00:44 12,8 C 11,7 C 11,7 C 96 % 1031,9 hPa 0,0 l/m 0 min 0 min 0 W/m 0,0 km/h (0 Bft) 100,00 %
25.05.2020 00:46 12,8 C 11,7 C 11,7 C 96 % 1031,9 hPa 0,0 l/m 0 min 0 min 0 W/m 0,0 km/h (0 Bft) 97,83 %
25.05.2020 00:48 12,8 C 11,7 C 11,7 C 96 % 1031,9 hPa 0,0 l/m 0 min 0 min 0 W/m 0,0 km/h (0 Bft) 97,87 %
25.05.2020 00:50 12,8 C 11,7 C 11,7 C 96 % 1031,9 hPa 0,0 l/m 0 min 2 min 0 W/m 0,0 km/h (0 Bft) 100,00 %
25.05.2020 00:52 12,8 C 11,7 C 11,7 C 96 % 1031,9 hPa 0,0 l/m 0 min 2 min 0 W/m 0,0 km/h (0 Bft) 100,00 %
25.05.2020 00:54 12,8 C 11,7 C 11,7 C 96 % 1032,0 hPa 0,0 l/m 0 min 0 min 0 W/m 0,0 km/h (0 Bft) 100,00 %
25.05.2020 00:56 12,8 C 11,7 C 11,7 C 96 % 1031,9 hPa 0,0 l/m 0 min 0 min 0 W/m 0,0 km/h (0 Bft) 97,87 %
25.05.2020 00:58 12,8 C 11,7 C 11,7 C 96 % 1031,9 hPa 0,0 l/m 0 min 0 min 0 W/m 0,0 km/h (0 Bft) 100,00 %
25.05.2020 01:00 12,8 C 11,7 C 11,7 C 97 % 1031,9 hPa 0,0 l/m 0 min 0 min 0 W/m 0,0 km/h (0 Bft) 97,87 %
25.05.2020 01:02 12,8 C 11,7 C 11,7 C 97 % 1032,0 hPa 0,0 l/m 0 min 0 min 0 W/m 0,0 km/h (0 Bft) 97,87 %
25.05.2020 01:04 12,8 C 11,7 C 11,7 C 97 % 1032,0 hPa 0,0 l/m 0 min 0 min 0 W/m 0,0 km/h (0 Bft) 97,87 %
25.05.2020 01:06 12,8 C 11,7 C 11,7 C 97 % 1032,0 hPa 0,0 l/m 0 min 0 min 0 W/m 3,2 km/h (1 Bft) 100,00 %
25.05.2020 01:08 12,8 C 11,7 C 11,7 C 97 % 1032,0 hPa 0,0 l/m 0 min 0 min 0 W/m 0,0 km/h (0 Bft) 95,74 %
25.05.2020 01:10 12,8 C 11,7 C 11,7 C 97 % 1031,9 hPa 0,0 l/m 0 min 0 min 0 W/m 0,0 km/h (0 Bft) 97,83 %
25.05.2020 01:12 12,8 C 11,7 C 11,7 C 97 % 1031,9 hPa 0,0 l/m 0 min 0 min 0 W/m 3,2 km/h (1 Bft) 97,87 %
25.05.2020 01:14 12,8 C 11,7 C 11,7 C 97 % 1032,0 hPa 0,0 l/m 0 min 0 min 0 W/m 0,0 km/h (0 Bft) 97,87 %
25.05.2020 01:16 12,8 C 11,7 C 11,7 C 97 % 1032,0 hPa 0,0 l/m 0 min 0 min 0 W/m 9,7 km/h (2 Bft) 97,87 %
25.05.2020 01:18 12,8 C 11,7 C 11,7 C 97 % 1032,0 hPa 0,0 l/m 0 min 0 min 0 W/m 0,0 km/h (0 Bft) 97,87 %
25.05.2020 01:20 12,8 C 11,7 C 11,7 C 97 % 1032,0 hPa 0,0 l/m 0 min 0 min 0 W/m 0,0 km/h (0 Bft) 97,83 %
25.05.2020 01:22 12,8 C 11,7 C 11,7 C 97 % 1032,0 hPa 0,0 l/m 0 min 0 min 0 W/m 0,0 km/h (0 Bft) 97,87 %
25.05.2020 01:24 12,8 C 11,7 C 11,7 C 97 % 1032,0 hPa 0,0 l/m 0 min 0 min 0 W/m 0,0 km/h (0 Bft) 95,74 %
25.05.2020 01:26 12,8 C 12,2 C 11,7 C 97 % 1032,0 hPa 0,0 l/m 0 min 0 min 0 W/m 0,0 km/h (0 Bft) 97,87 %
25.05.2020 01:28 12,8 C 11,7 C 11,7 C 97 % 1032,0 hPa 0,0 l/m 0 min 0 min 0 W/m 6,4 km/h (2 Bft) 97,87 %
25.05.2020 01:30 12,8 C 11,7 C 11,7 C 97 % 1032,0 hPa 0,0 l/m 0 min 0 min 0 W/m 0,0 km/h (0 Bft) 97,87 %
25.05.2020 01:32 12,8 C 11,7 C 11,7 C 97 % 1032,0 hPa 0,0 l/m 0 min 0 min 0 W/m 3,2 km/h (1 Bft) 97,83 %
25.05.2020 01:34 12,8 C 11,7 C 11,7 C 97 % 1032,0 hPa 0,0 l/m 0 min 0 min 0 W/m 0,0 km/h (0 Bft) 97,87 %
25.05.2020 01:36 12,8 C 11,7 C 11,7 C 97 % 1032,0 hPa 0,0 l/m 0 min 0 min 0 W/m 0,0 km/h (0 Bft) 97,87 %
25.05.2020 01:38 12,8 C 11,7 C 11,7 C 97 % 1032,0 hPa 0,0 l/m 0 min 0 min 0 W/m 0,0 km/h (0 Bft) 97,87 %
25.05.2020 01:40 12,8 C 11,7 C 11,7 C 97 % 1032,0 hPa 0,0 l/m 0 min 0 min 0 W/m 0,0 km/h (0 Bft) 97,87 %
25.05.2020 01:42 12,8 C 11,7 C 11,7 C 97 % 1032,0 hPa 0,0 l/m 0 min 0 min 0 W/m 0,0 km/h (0 Bft) 95,74 %
25.05.2020 01:44 12,8 C 11,7 C 11,7 C 97 % 1032,0 hPa 0,0 l/m 0 min 0 min 0 W/m 0,0 km/h (0 Bft) 97,83 %
25.05.2020 01:46 12,8 C 11,7 C 11,7 C 97 % 1032,0 hPa 0,0 l/m 0 min 0 min 0 W/m 0,0 km/h (0 Bft) 97,87 %
25.05.2020 01:48 12,8 C 11,7 C 11,7 C 97 % 1031,9 hPa 0,0 l/m 0 min 0 min 0 W/m 0,0 km/h (0 Bft) 95,74 %
25.05.2020 01:50 12,8 C 11,7 C 11,7 C 97 % 1031,9 hPa 0,0 l/m 0 min 0 min 0 W/m 3,2 km/h (1 Bft) 97,87 %
25.05.2020 01:52 12,8 C 11,7 C 11,7 C 97 % 1031,9 hPa 0,0 l/m 0 min 0 min 0 W/m 0,0 km/h (0 Bft) 97,87 %
25.05.2020 01:54 12,8 C 11,7 C 11,7 C 97 % 1031,9 hPa 0,0 l/m 0 min 0 min 0 W/m 0,0 km/h (0 Bft) 97,87 %
25.05.2020 01:56 12,8 C 11,7 C 11,7 C 97 % 1031,9 hPa 0,0 l/m 0 min 0 min 0 W/m 0,0 km/h (0 Bft) 95,65 %
25.05.2020 01:58 12,8 C 11,7 C 11,7 C 97 % 1031,9 hPa 0,0 l/m 0 min 0 min 0 W/m 0,0 km/h (0 Bft) 97,87 %
25.05.2020 02:00 12,8 C 11,7 C 11,7 C 97 % 1031,9 hPa 0,0 l/m 0 min 0 min 0 W/m 0,0 km/h (0 Bft) 95,74 %
25.05.2020 02:02 12,8 C 11,7 C 11,7 C 97 % 1032,0 hPa 0,0 l/m 0 min 0 min 0 W/m 3,2 km/h (1 Bft) 97,87 %
25.05.2020 02:04 12,8 C 11,7 C 11,7 C 97 % 1032,0 hPa 0,0 l/m 0 min 0 min 0 W/m 0,0 km/h (0 Bft) 97,87 %
25.05.2020 02:06 12,8 C 11,7 C 11,7 C 97 % 1032,0 hPa 0,0 l/m 0 min 0 min 0 W/m 0,0 km/h (0 Bft) 97,83 %
25.05.2020 02:08 12,8 C 11,7 C 11,7 C 97 % 1031,9 hPa 0,0 l/m 0 min 0 min 0 W/m 0,0 km/h (0 Bft) 97,87 %
25.05.2020 02:10 12,7 C 11,7 C 11,7 C 97 % 1031,9 hPa 0,0 l/m 0 min 0 min 0 W/m 0,0 km/h (0 Bft) 100,00 %
25.05.2020 02:12 12,8 C 11,7 C 11,7 C 97 % 1032,0 hPa 0,0 l/m 0 min 0 min 0 W/m 0,0 km/h (0 Bft) 100,00 %
25.05.2020 02:14 12,7 C 11,7 C 11,7 C 97 % 1032,0 hPa 0,0 l/m 0 min 0 min 0 W/m 0,0 km/h (0 Bft) 96,43 %
25.05.2020 02:16 12,8 C 11,7 C 11,7 C 97 % 1032,0 hPa 0,0 l/m 0 min 0 min 0 W/m 0,0 km/h (0 Bft) 100,00 %
25.05.2020 02:18 12,7 C 11,7 C 11,7 C 97 % 1032,0 hPa 0,0 l/m 0 min 0 min 0 W/m 0,0 km/h (0 Bft) 97,87 %
25.05.2020 02:20 12,7 C 11,7 C 11,7 C 97 % 1032,0 hPa 0,0 l/m 0 min 0 min 0 W/m 0,0 km/h (0 Bft) 95,74 %
25.05.2020 02:22 12,7 C 11,7 C 11,7 C 97 % 1032,0 hPa 0,0 l/m 0 min 0 min 0 W/m 0,0 km/h (0 Bft) 95,74 %
25.05.2020 02:24 12,7 C 11,7 C 11,7 C 97 % 1031,9 hPa 0,0 l/m 0 min 0 min 0 W/m 0,0 km/h (0 Bft) 95,74 %
25.05.2020 02:26 12,7 C 11,7 C 11,7 C 97 % 1031,9 hPa 0,0 l/m 0 min 0 min 0 W/m 0,0 km/h (0 Bft) 95,74 %
25.05.2020 02:28 12,7 C 11,7 C 11,7 C 97 % 1031,9 hPa 0,0 l/m 0 min 0 min 0 W/m 0,0 km/h (0 Bft) 93,48 %
25.05.2020 02:30 12,7 C 11,7 C 11,7 C 97 % 1031,9 hPa 0,0 l/m 0 min 0 min 0 W/m 0,0 km/h (0 Bft) 95,74 %
25.05.2020 02:32 12,7 C 11,7 C 11,7 C 97 % 1031,9 hPa 0,0 l/m 0 min 0 min 0 W/m 0,0 km/h (0 Bft) 95,74 %
25.05.2020 02:34 12,7 C 11,7 C 11,7 C 97 % 1032,0 hPa 0,0 l/m 0 min 0 min 0 W/m 0,0 km/h (0 Bft) 95,74 %
25.05.2020 02:36 12,7 C 11,7 C 11,7 C 97 % 1032,0 hPa 0,0 l/m 0 min 0 min 0 W/m 0,0 km/h (0 Bft) 93,62 %
25.05.2020 02:38 12,7 C 11,7 C 11,7 C 97 % 1032,0 hPa 0,0 l/m 0 min 0 min 0 W/m 0,0 km/h (0 Bft) 95,74 %
25.05.2020 02:40 12,7 C 11,7 C 11,7 C 97 % 1031,9 hPa 0,0 l/m 0 min 0 min 0 W/m 3,2 km/h (1 Bft) 95,65 %
25.05.2020 02:42 12,7 C 11,7 C 11,7 C 97 % 1031,9 hPa 0,0 l/m 0 min 0 min 0 W/m 3,2 km/h (1 Bft) 95,74 %
25.05.2020 02:44 12,7 C 11,7 C 11,7 C 97 % 1032,0 hPa 0,0 l/m 0 min 0 min 0 W/m 0,0 km/h (0 Bft) 95,74 %
25.05.2020 02:46 12,7 C 11,7 C 11,7 C 97 % 1031,9 hPa 0,0 l/m 0 min 0 min 0 W/m 0,0 km/h (0 Bft) 91,49 %
25.05.2020 02:48 12,7 C 11,7 C 11,7 C 97 % 1031,9 hPa 0,0 l/m 0 min 0 min 0 W/m 0,0 km/h (0 Bft) 95,74 %
25.05.2020 02:50 12,7 C 11,7 C 11,7 C 97 % 1031,9 hPa 0,0 l/m 0 min 0 min 0 W/m 0,0 km/h (0 Bft) 95,74 %
25.05.2020 02:52 12,7 C 11,7 C 11,7 C 97 % 1031,9 hPa 0,0 l/m 0 min 0 min 0 W/m 0,0 km/h (0 Bft) 95,65 %
25.05.2020 02:54 12,7 C 11,7 C 11,7 C 97 % 1032,0 hPa 0,0 l/m 0 min 0 min 0 W/m 3,2 km/h (1 Bft) 95,74 %
25.05.2020 02:56 12,7 C 11,7 C 11,7 C 97 % 1031,9 hPa 0,0 l/m 0 min 0 min 0 W/m 6,4 km/h (2 Bft) 93,62 %
25.05.2020 02:58 12,7 C 11,7 C 11,7 C 97 % 1031,9 hPa 0,0 l/m 0 min 0 min 0 W/m 0,0 km/h (0 Bft) 95,74 %
25.05.2020 03:00 12,7 C 11,7 C 11,7 C 97 % 1031,9 hPa 0,0 l/m 0 min 0 min 0 W/m 3,2 km/h (1 Bft) 95,74 %
25.05.2020 03:02 12,7 C 11,7 C 11,7 C 97 % 1031,9 hPa 0,0 l/m 0 min 0 min 0 W/m 3,2 km/h (1 Bft) 95,74 %
25.05.2020 03:04 12,7 C 11,7 C 11,7 C 97 % 1031,8 hPa 0,0 l/m 0 min 0 min 0 W/m 3,2 km/h (1 Bft) 97,83 %
25.05.2020 03:06 12,7 C 11,7 C 11,7 C 97 % 1031,9 hPa 0,0 l/m 0 min 0 min 0 W/m 3,2 km/h (1 Bft) 97,87 %
25.05.2020 03:08 12,7 C 11,7 C 11,7 C 97 % 1031,9 hPa 0,0 l/m 0 min 0 min 0 W/m 0,0 km/h (0 Bft) 93,62 %
25.05.2020 03:10 12,7 C 11,7 C 11,7 C 97 % 1031,9 hPa 0,0 l/m 0 min 0 min 0 W/m 0,0 km/h (0 Bft) 97,87 %
25.05.2020 03:12 12,7 C 11,7 C 11,7 C 97 % 1031,9 hPa 0,0 l/m 0 min 0 min 0 W/m 3,2 km/h (1 Bft) 97,87 %
25.05.2020 03:14 12,7 C 11,7 C 11,7 C 97 % 1031,9 hPa 0,0 l/m 0 min 0 min 0 W/m 0,0 km/h (0 Bft) 97,83 %
25.05.2020 03:16 12,7 C 11,7 C 11,7 C 97 % 1031,9 hPa 0,0 l/m 0 min 0 min 0 W/m 0,0 km/h (0 Bft) 97,87 %
25.05.2020 03:18 12,7 C 11,7 C 11,7 C 97 % 1031,9 hPa 0,0 l/m 0 min 0 min 0 W/m 0,0 km/h (0 Bft) 95,74 %
25.05.2020 03:20 12,7 C 11,7 C 11,7 C 97 % 1031,9 hPa 0,0 l/m 0 min 0 min 0 W/m 0,0 km/h (0 Bft) 95,74 %
25.05.2020 03:22 12,7 C 11,7 C 11,7 C 97 % 1031,9 hPa 0,0 l/m 0 min 0 min 0 W/m 0,0 km/h (0 Bft) 97,87 %
25.05.2020 03:24 12,7 C 11,7 C 11,7 C 97 % 1031,9 hPa 0,0 l/m 0 min 0 min 0 W/m 0,0 km/h (0 Bft) 95,74 %
25.05.2020 03:26 12,7 C 11,7 C 11,7 C 97 % 1031,9 hPa 0,0 l/m 0 min 0 min 0 W/m 0,0 km/h (0 Bft) 97,83 %
25.05.2020 03:28 12,7 C 11,7 C 11,7 C 97 % 1031,9 hPa 0,0 l/m 0 min 0 min 0 W/m 0,0 km/h (0 Bft) 100,00 %
25.05.2020 03:30 12,7 C 11,7 C 11,7 C 97 % 1031,9 hPa 0,0 l/m 0 min 0 min 0 W/m 0,0 km/h (0 Bft) 100,00 %
25.05.2020 03:32 12,7 C 11,7 C 11,7 C 97 % 1031,9 hPa 0,0 l/m 0 min 0 min 0 W/m 0,0 km/h (0 Bft) 97,87 %
25.05.2020 03:34 12,7 C 11,7 C 11,7 C 97 % 1031,9 hPa 0,0 l/m 0 min 0 min 0 W/m 0,0 km/h (0 Bft) 95,74 %
25.05.2020 03:36 12,7 C 11,7 C 11,7 C 97 % 1031,9 hPa 0,0 l/m 0 min 0 min 0 W/m 0,0 km/h (0 Bft) 95,74 %
25.05.2020 03:38 12,7 C 11,7 C 11,7 C 97 % 1031,9 hPa 0,0 l/m 0 min 0 min 0 W/m 0,0 km/h (0 Bft) 100,00 %
25.05.2020 03:40 12,6 C 11,7 C 11,7 C 97 % 1031,9 hPa 0,0 l/m 0 min 0 min 0 W/m 0,0 km/h (0 Bft) 100,00 %
25.05.2020 03:42 12,6 C 11,7 C 11,7 C 97 % 1031,8 hPa 0,0 l/m 0 min 0 min 0 W/m 3,2 km/h (1 Bft) 97,87 %
25.05.2020 03:44 12,6 C 11,7 C 11,7 C 97 % 1031,9 hPa 0,0 l/m 0 min 0 min 0 W/m 3,2 km/h (1 Bft) 95,74 %
25.05.2020 03:46 12,6 C 11,7 C 11,7 C 97 % 1031,9 hPa 0,0 l/m 0 min 0 min 0 W/m 0,0 km/h (0 Bft) 95,74 %
25.05.2020 03:48 12,6 C 11,7 C 11,7 C 97 % 1031,9 hPa 0,0 l/m 0 min 0 min 0 W/m 0,0 km/h (0 Bft) 100,00 %
25.05.2020 03:50 12,6 C 11,7 C 11,7 C 97 % 1031,8 hPa 0,0 l/m 0 min 0 min 0 W/m 3,2 km/h (1 Bft) 100,00 %
25.05.2020 03:52 12,6 C 11,7 C 11,7 C 97 % 1031,8 hPa 0,0 l/m 0 min 0 min 0 W/m 0,0 km/h (0 Bft) 93,62 %
25.05.2020 03:54 12,6 C 11,7 C 11,7 C 97 % 1031,9 hPa 0,0 l/m 0 min 0 min 0 W/m 0,0 km/h (0 Bft) 97,87 %
25.05.2020 03:56 12,6 C 11,7 C 11,7 C 97 % 1031,9 hPa 0,0 l/m 0 min 0 min 0 W/m 3,2 km/h (1 Bft) 95,74 %
25.05.2020 03:58 12,6 C 11,7 C 11,7 C 97 % 1031,8 hPa 0,0 l/m 0 min 0 min 0 W/m 6,4 km/h (2 Bft) 95,74 %
25.05.2020 04:00 12,6 C 11,7 C 11,7 C 97 % 1031,8 hPa 0,0 l/m 0 min 0 min 0 W/m 3,2 km/h (1 Bft) 97,87 %
25.05.2020 04:02 12,6 C 11,7 C 11,7 C 97 % 1031,8 hPa 0,0 l/m 0 min 0 min 0 W/m 0,0 km/h (0 Bft) 100,00 %
25.05.2020 04:04 12,6 C 11,7 C 11,7 C 97 % 1031,8 hPa 0,0 l/m 0 min 0 min 0 W/m 0,0 km/h (0 Bft) 95,74 %
25.05.2020 04:06 12,6 C 11,7 C 11,7 C 97 % 1031,8 hPa 0,0 l/m 0 min 0 min 0 W/m 3,2 km/h (1 Bft) 97,87 %
25.05.2020 04:08 12,6 C 11,7 C 11,7 C 97 % 1031,8 hPa 0,0 l/m 0 min 0 min 0 W/m 6,4 km/h (2 Bft) 97,87 %
25.05.2020 04:10 12,6 C 11,7 C 11,7 C 97 % 1031,8 hPa 0,0 l/m 0 min 0 min 0 W/m 0,0 km/h (0 Bft) 97,87 %
25.05.2020 04:12 12,6 C 11,7 C 11,7 C 97 % 1031,9 hPa 0,0 l/m 0 min 0 min 0 W/m 3,2 km/h (1 Bft) 97,83 %
25.05.2020 04:14 12,6 C 11,7 C 11,7 C 97 % 1031,9 hPa 0,0 l/m 0 min 0 min 0 W/m 3,2 km/h (1 Bft) 97,87 %
25.05.2020 04:16 12,6 C 11,7 C 11,7 C 97 % 1031,9 hPa 0,0 l/m 0 min 0 min 0 W/m 12,9 km/h (3 Bft) 97,87 %
25.05.2020 04:18 12,6 C 11,7 C 11,7 C 97 % 1031,9 hPa 0,0 l/m 0 min 0 min 0 W/m 0,0 km/h (0 Bft) 97,87 %
25.05.2020 04:20 12,6 C 11,7 C 11,7 C 97 % 1031,9 hPa 0,0 l/m 0 min 0 min 0 W/m 0,0 km/h (0 Bft) 97,87 %
25.05.2020 04:22 12,6 C 11,7 C 11,7 C 97 % 1031,9 hPa 0,0 l/m 0 min 0 min 0 W/m 3,2 km/h (1 Bft) 95,74 %
25.05.2020 04:24 12,6 C 11,7 C 11,7 C 97 % 1031,9 hPa 0,0 l/m 0 min 0 min 0 W/m 0,0 km/h (0 Bft) 97,83 %
25.05.2020 04:26 12,6 C 11,7 C 11,7 C 97 % 1031,9 hPa 0,0 l/m 0 min 0 min 0 W/m 3,2 km/h (1 Bft) 95,74 %
25.05.2020 04:28 12,6 C 11,7 C 11,7 C 97 % 1031,9 hPa 0,0 l/m 0 min 0 min 0 W/m 3,2 km/h (1 Bft) 97,87 %
25.05.2020 04:30 12,6 C 11,7 C 11,7 C 97 % 1031,9 hPa 0,0 l/m 0 min 0 min 0 W/m 0,0 km/h (0 Bft) 97,87 %
25.05.2020 04:32 12,6 C 11,7 C 11,7 C 97 % 1031,9 hPa 0,0 l/m 0 min 0 min 0 W/m 0,0 km/h (0 Bft) 97,87 %
25.05.2020 04:34 12,6 C 11,7 C 11,7 C 97 % 1031,9 hPa 0,0 l/m 0 min 0 min 0 W/m 0,0 km/h (0 Bft) 97,87 %
25.05.2020 04:36 12,6 C 11,7 C 11,7 C 97 % 1031,9 hPa 0,0 l/m 0 min 0 min 0 W/m 3,2 km/h (1 Bft) 97,83 %
25.05.2020 04:38 12,6 C 11,7 C 11,7 C 97 % 1032,0 hPa 0,0 l/m 0 min 0 min 0 W/m 3,2 km/h (1 Bft) 100,00 %
25.05.2020 04:40 12,6 C 11,7 C 11,7 C 97 % 1032,0 hPa 0,0 l/m 0 min 0 min 0 W/m 9,7 km/h (2 Bft) 100,00 %
25.05.2020 04:42 12,6 C 11,7 C 11,7 C 97 % 1032,0 hPa 0,0 l/m 0 min 0 min 0 W/m 3,2 km/h (1 Bft) 100,00 %
25.05.2020 04:44 12,6 C 11,7 C 11,7 C 97 % 1032,0 hPa 0,0 l/m 0 min 0 min 0 W/m 6,4 km/h (2 Bft) 100,00 %
25.05.2020 04:46 12,6 C 11,7 C 11,7 C 97 % 1032,0 hPa 0,0 l/m 0 min 0 min 0 W/m 3,2 km/h (1 Bft) 100,00 %
25.05.2020 04:48 12,6 C 11,7 C 11,7 C 97 % 1032,0 hPa 0,0 l/m 0 min 0 min 0 W/m 0,0 km/h (0 Bft) 97,83 %
25.05.2020 04:50 12,6 C 11,7 C 11,7 C 97 % 1032,0 hPa 0,0 l/m 0 min 0 min 0 W/m 3,2 km/h (1 Bft) 100,00 %
25.05.2020 04:52 12,6 C 11,7 C 11,7 C 97 % 1032,0 hPa 0,0 l/m 0 min 0 min 0 W/m 0,0 km/h (0 Bft) 100,00 %
25.05.2020 04:54 12,6 C 11,7 C 11,7 C 97 % 1032,0 hPa 0,0 l/m 0 min 0 min 0 W/m 3,2 km/h (1 Bft) 100,00 %
25.05.2020 04:56 12,6 C 11,7 C 11,7 C 97 % 1032,0 hPa 0,0 l/m 0 min 0 min 0 W/m 6,4 km/h (2 Bft) 100,00 %
25.05.2020 04:58 12,5 C 11,7 C 11,7 C 97 % 1032,0 hPa 0,0 l/m 0 min 0 min 0 W/m 0,0 km/h (0 Bft) 100,00 %
25.05.2020 05:00 12,5 C 11,7 C 11,7 C 97 % 1032,0 hPa 0,0 l/m 0 min 0 min 0 W/m 0,0 km/h (0 Bft) 100,00 %
25.05.2020 05:02 12,5 C 11,7 C 11,7 C 97 % 1032,1 hPa 0,0 l/m 0 min 0 min 0 W/m 0,0 km/h (0 Bft) 100,00 %
25.05.2020 05:04 12,6 C 11,7 C 11,1 C 97 % 1032,1 hPa 0,0 l/m 0 min 0 min 0 W/m 0,0 km/h (0 Bft) 100,00 %
25.05.2020 05:06 12,6 C 11,7 C 11,1 C 97 % 1032,1 hPa 0,0 l/m 0 min 0 min 0 W/m 3,2 km/h (1 Bft) 97,87 %
25.05.2020 05:08 12,5 C 11,7 C 11,1 C 97 % 1032,1 hPa 0,0 l/m 0 min 0 min 0 W/m 0,0 km/h (0 Bft) 100,00 %
25.05.2020 05:10 12,5 C 11,7 C 11,1 C 97 % 1032,1 hPa 0,0 l/m 0 min 0 min 0 W/m 0,0 km/h (0 Bft) 100,00 %
25.05.2020 05:12 12,5 C 11,7 C 11,1 C 97 % 1032,1 hPa 0,0 l/m 0 min 0 min 0 W/m 3,2 km/h (1 Bft) 97,87 %
25.05.2020 05:14 12,5 C 11,7 C 11,1 C 97 % 1032,1 hPa 0,0 l/m 0 min 0 min 0 W/m 0,0 km/h (0 Bft) 97,87 %
25.05.2020 05:16 12,5 C 11,7 C 11,1 C 97 % 1032,1 hPa 0,0 l/m 0 min 0 min 0 W/m 0,0 km/h (0 Bft) 97,87 %
25.05.2020 05:18 12,5 C 11,7 C 11,1 C 97 % 1032,1 hPa 0,0 l/m 0 min 0 min 0 W/m 0,0 km/h (0 Bft) 97,50 %
25.05.2020 05:20 12,5 C 11,7 C 11,1 C 97 % 1032,1 hPa 0,0 l/m 0 min 0 min 0 W/m 0,0 km/h (0 Bft) 97,87 %
25.05.2020 05:22 12,5 C 11,7 C 11,1 C 97 % 1032,1 hPa 0,0 l/m 0 min 0 min 0 W/m 0,0 km/h (0 Bft) 95,74 %
25.05.2020 05:24 12,5 C 11,7 C 11,1 C 97 % 1032,2 hPa 0,0 l/m 0 min 0 min 0 W/m 0,0 km/h (0 Bft) 95,74 %
25.05.2020 05:26 12,5 C 11,7 C 11,1 C 97 % 1032,1 hPa 0,0 l/m 0 min 0 min 0 W/m 0,0 km/h (0 Bft) 97,87 %
25.05.2020 05:28 12,5 C 11,7 C 11,1 C 97 % 1032,2 hPa 0,0 l/m 0 min 0 min 0 W/m 0,0 km/h (0 Bft) 97,83 %
25.05.2020 05:30 12,5 C 11,7 C 11,1 C 97 % 1032,2 hPa 0,0 l/m 0 min 0 min 0 W/m 3,2 km/h (1 Bft) 97,87 %
25.05.2020 05:32 12,5 C 11,7 C 11,1 C 97 % 1032,2 hPa 0,0 l/m 0 min 0 min 0 W/m 0,0 km/h (0 Bft) 97,87 %
25.05.2020 05:34 12,5 C 11,7 C 11,1 C 97 % 1032,2 hPa 0,0 l/m 0 min 0 min 0 W/m 0,0 km/h (0 Bft) 95,74 %
25.05.2020 05:36 12,5 C 11,7 C 11,1 C 97 % 1032,2 hPa 0,0 l/m 0 min 0 min 0 W/m 0,0 km/h (0 Bft) 97,87 %
25.05.2020 05:38 12,4 C 11,7 C 11,1 C 97 % 1032,2 hPa 0,0 l/m 0 min 0 min 0 W/m 0,0 km/h (0 Bft) 97,87 %
25.05.2020 05:40 12,4 C 11,7 C 11,1 C 97 % 1032,2 hPa 0,0 l/m 0 min 0 min 2 W/m 0,0 km/h (0 Bft) 95,65 %
25.05.2020 05:42 12,4 C 11,7 C 11,1 C 97 % 1032,2 hPa 0,0 l/m 0 min 0 min 5 W/m 3,2 km/h (1 Bft) 95,74 %
25.05.2020 05:44 12,4 C 11,7 C 11,1 C 97 % 1032,3 hPa 0,0 l/m 0 min 0 min 5 W/m 0,0 km/h (0 Bft) 97,87 %
25.05.2020 05:46 12,4 C 11,7 C 11,1 C 97 % 1032,3 hPa 0,0 l/m 0 min 0 min 6 W/m 0,0 km/h (0 Bft) 97,87 %
25.05.2020 05:48 12,4 C 11,7 C 11,1 C 97 % 1032,3 hPa 0,0 l/m 0 min 0 min 7 W/m 3,2 km/h (1 Bft) 97,87 %
25.05.2020 05:50 12,4 C 11,7 C 11,1 C 97 % 1032,3 hPa 0,0 l/m 0 min 0 min 7 W/m 0,0 km/h (0 Bft) 95,74 %
25.05.2020 05:52 12,4 C 11,7 C 11,1 C 97 % 1032,3 hPa 0,0 l/m 0 min 0 min 9 W/m 0,0 km/h (0 Bft) 95,65 %
25.05.2020 05:54 12,4 C 11,7 C 11,1 C 96 % 1032,3 hPa 0,0 l/m 0 min 0 min 9 W/m 0,0 km/h (0 Bft) 97,87 %
25.05.2020 05:56 12,4 C 11,7 C 11,1 C 96 % 1032,2 hPa 0,0 l/m 0 min 0 min 11 W/m 3,2 km/h (1 Bft) 97,87 %
25.05.2020 05:58 12,4 C 11,7 C 11,1 C 96 % 1032,2 hPa 0,0 l/m 0 min 0 min 11 W/m 0,0 km/h (0 Bft) 97,87 %
25.05.2020 06:00 12,4 C 11,7 C 11,1 C 96 % 1032,3 hPa 0,0 l/m 0 min 0 min 12 W/m 0,0 km/h (0 Bft) 95,74 %
25.05.2020 06:02 12,4 C 11,7 C 11,1 C 96 % 1032,3 hPa 0,0 l/m 0 min 0 min 12 W/m 6,4 km/h (2 Bft) 100,00 %
25.05.2020 06:04 12,4 C 11,7 C 11,1 C 96 % 1032,3 hPa 0,0 l/m 0 min 0 min 14 W/m 0,0 km/h (0 Bft) 97,87 %
25.05.2020 06:08 12,4 C 11,7 C 11,1 C 96 % 1032,3 hPa 0,0 l/m 0 min 0 min 16 W/m 3,2 km/h (1 Bft) 77,53 %
25.05.2020 06:10 12,4 C 11,7 C 11,1 C 96 % 1032,3 hPa 0,0 l/m 0 min 0 min 18 W/m 0,0 km/h (0 Bft) 97,87 %
25.05.2020 06:12 12,4 C 11,7 C 11,1 C 96 % 1032,3 hPa 0,0 l/m 0 min 0 min 18 W/m 3,2 km/h (1 Bft) 97,87 %
25.05.2020 06:14 12,4 C 11,7 C 11,1 C 96 % 1032,3 hPa 0,0 l/m 0 min 0 min 19 W/m 0,0 km/h (0 Bft) 100,00 %
25.05.2020 06:16 12,4 C 11,7 C 11,1 C 97 % 1032,3 hPa 0,0 l/m 0 min 0 min 21 W/m 0,0 km/h (0 Bft) 100,00 %
25.05.2020 06:18 12,4 C 11,7 C 11,7 C 96 % 1032,3 hPa 0,0 l/m 0 min 0 min 21 W/m 0,0 km/h (0 Bft) 95,74 %
25.05.2020 06:20 12,4 C 11,7 C 11,7 C 97 % 1032,4 hPa 0,0 l/m 0 min 0 min 21 W/m 0,0 km/h (0 Bft) 97,87 %
25.05.2020 06:22 12,4 C 11,7 C 11,7 C 97 % 1032,4 hPa 0,0 l/m 0 min 0 min 21 W/m 3,2 km/h (1 Bft) 97,87 %
25.05.2020 06:24 12,4 C 11,7 C 11,7 C 97 % 1032,3 hPa 0,0 l/m 0 min 0 min 23 W/m 0,0 km/h (0 Bft) 100,00 %
25.05.2020 06:26 12,4 C 12,2 C 11,7 C 97 % 1032,4 hPa 0,0 l/m 0 min 0 min 23 W/m 0,0 km/h (0 Bft) 97,83 %
25.05.2020 06:28 12,4 C 12,2 C 11,7 C 97 % 1032,3 hPa 0,0 l/m 0 min 0 min 25 W/m 3,2 km/h (1 Bft) 95,74 %
25.05.2020 06:30 12,4 C 12,2 C 11,7 C 97 % 1032,3 hPa 0,0 l/m 0 min 0 min 25 W/m 0,0 km/h (0 Bft) 95,74 %
25.05.2020 06:32 12,4 C 12,2 C 11,7 C 97 % 1032,3 hPa 0,0 l/m 0 min 0 min 25 W/m 0,0 km/h (0 Bft) 93,62 %
25.05.2020 06:34 12,4 C 12,2 C 11,7 C 97 % 1032,4 hPa 0,0 l/m 0 min 0 min 24 W/m 3,2 km/h (1 Bft) 95,74 %
25.05.2020 06:36 12,4 C 12,2 C 11,7 C 97 % 1032,4 hPa 0,0 l/m 0 min 0 min 25 W/m 0,0 km/h (0 Bft) 95,65 %
25.05.2020 06:38 12,4 C 12,2 C 11,7 C 97 % 1032,4 hPa 0,0 l/m 0 min 0 min 26 W/m 0,0 km/h (0 Bft) 95,74 %
25.05.2020 06:40 12,4 C 12,2 C 11,7 C 97 % 1032,4 hPa 0,0 l/m 0 min 0 min 25 W/m 0,0 km/h (0 Bft) 95,74 %
25.05.2020 06:42 12,4 C 12,2 C 11,7 C 97 % 1032,4 hPa 0,0 l/m 0 min 0 min 23 W/m 6,4 km/h (2 Bft) 93,62 %
25.05.2020 06:44 12,5 C 12,2 C 11,7 C 97 % 1032,4 hPa 0,0 l/m 0 min 0 min 22 W/m 0,0 km/h (0 Bft) 95,74 %
25.05.2020 06:46 12,5 C 12,2 C 11,7 C 97 % 1032,4 hPa 0,0 l/m 0 min 0 min 21 W/m 3,2 km/h (1 Bft) 95,74 %
25.05.2020 06:48 12,5 C 12,2 C 11,7 C 97 % 1032,5 hPa 0,0 l/m 0 min 0 min 21 W/m 6,4 km/h (2 Bft) 95,65 %
25.05.2020 06:50 12,5 C 12,2 C 11,7 C 97 % 1032,5 hPa 0,0 l/m 0 min 0 min 24 W/m 0,0 km/h (0 Bft) 95,74 %
25.05.2020 06:52 12,5 C 12,2 C 11,7 C 97 % 1032,5 hPa 0,0 l/m 0 min 0 min 25 W/m 0,0 km/h (0 Bft) 95,74 %
25.05.2020 06:54 12,6 C 12,2 C 11,7 C 97 % 1032,6 hPa 0,0 l/m 0 min 0 min 26 W/m 0,0 km/h (0 Bft) 95,74 %
25.05.2020 06:56 12,6 C 12,2 C 11,7 C 97 % 1032,6 hPa 0,0 l/m 0 min 0 min 27 W/m 3,2 km/h (1 Bft) 95,74 %
25.05.2020 06:58 12,6 C 12,2 C 11,7 C 97 % 1032,6 hPa 0,0 l/m 0 min 0 min 28 W/m 0,0 km/h (0 Bft) 95,74 %
25.05.2020 07:00 12,6 C 12,2 C 11,7 C 97 % 1032,6 hPa 0,0 l/m 0 min 0 min 28 W/m 0,0 km/h (0 Bft) 97,83 %
25.05.2020 07:02 12,6 C 12,2 C 11,7 C 97 % 1032,6 hPa 0,0 l/m 0 min 0 min 28 W/m 0,0 km/h (0 Bft) 93,62 %
25.05.2020 07:04 12,6 C 12,2 C 11,7 C 97 % 1032,6 hPa 0,0 l/m 0 min 0 min 28 W/m 0,0 km/h (0 Bft) 95,74 %
25.05.2020 07:06 12,6 C 12,2 C 11,7 C 97 % 1032,6 hPa 0,0 l/m 0 min 0 min 31 W/m 0,0 km/h (0 Bft) 95,74 %
25.05.2020 07:08 12,6 C 12,2 C 11,7 C 97 % 1032,6 hPa 0,0 l/m 0 min 0 min 33 W/m 0,0 km/h (0 Bft) 95,74 %
25.05.2020 07:10 12,6 C 12,2 C 11,7 C 97 % 1032,6 hPa 0,0 l/m 0 min 0 min 35 W/m 0,0 km/h (0 Bft) 95,74 %
25.05.2020 07:12 12,7 C 12,2 C 11,7 C 97 % 1032,6 hPa 0,0 l/m 0 min 0 min 38 W/m 0,0 km/h (0 Bft) 95,65 %
25.05.2020 07:14 12,7 C 12,2 C 11,7 C 97 % 1032,6 hPa 0,0 l/m 0 min 0 min 40 W/m 0,0 km/h (0 Bft) 97,87 %
25.05.2020 07:16 12,7 C 12,2 C 11,7 C 97 % 1032,6 hPa 0,0 l/m 0 min 0 min 43 W/m 0,0 km/h (0 Bft) 97,87 %
25.05.2020 07:18 12,7 C 12,8 C 11,7 C 97 % 1032,7 hPa 0,0 l/m 0 min 0 min 46 W/m 3,2 km/h (1 Bft) 97,87 %
25.05.2020 07:20 12,7 C 12,8 C 11,7 C 97 % 1032,7 hPa 0,0 l/m 0 min 0 min 47 W/m 3,2 km/h (1 Bft) 96,30 %
25.05.2020 07:22 12,7 C 12,8 C 11,7 C 97 % 1032,6 hPa 0,0 l/m 0 min 0 min 49 W/m 0,0 km/h (0 Bft) 97,87 %
25.05.2020 07:24 12,7 C 12,8 C 11,7 C 97 % 1032,7 hPa 0,0 l/m 0 min 0 min 51 W/m 3,2 km/h (1 Bft) 97,87 %
25.05.2020 07:26 12,7 C 12,8 C 12,2 C 97 % 1032,7 hPa 0,0 l/m 0 min 0 min 53 W/m 0,0 km/h (0 Bft) 97,87 %
25.05.2020 07:28 12,8 C 12,8 C 12,2 C 97 % 1032,7 hPa 0,0 l/m 0 min 0 min 56 W/m 0,0 km/h (0 Bft) 100,00 %
25.05.2020 07:30 12,8 C 12,8 C 12,2 C 97 % 1032,7 hPa 0,0 l/m 0 min 0 min 59 W/m 0,0 km/h (0 Bft) 100,00 %
25.05.2020 07:32 12,8 C 12,8 C 12,2 C 97 % 1032,7 hPa 0,0 l/m 0 min 0 min 61 W/m 3,2 km/h (1 Bft) 100,00 %
25.05.2020 07:34 12,8 C 12,8 C 12,2 C 97 % 1032,8 hPa 0,0 l/m 0 min 0 min 63 W/m 0,0 km/h (0 Bft) 100,00 %
25.05.2020 07:36 12,8 C 12,8 C 12,2 C 97 % 1032,8 hPa 0,0 l/m 0 min 0 min 64 W/m 3,2 km/h (1 Bft) 97,87 %
25.05.2020 07:38 12,9 C 12,8 C 12,2 C 97 % 1032,8 hPa 0,0 l/m 0 min 0 min 65 W/m 6,4 km/h (2 Bft) 100,00 %
25.05.2020 07:40 12,9 C 12,8 C 12,2 C 97 % 1032,8 hPa 0,0 l/m 0 min 0 min 63 W/m 0,0 km/h (0 Bft) 97,87 %
25.05.2020 07:42 12,9 C 12,8 C 12,2 C 97 % 1032,9 hPa 0,0 l/m 0 min 0 min 62 W/m 0,0 km/h (0 Bft) 100,00 %
25.05.2020 07:44 12,9 C 12,8 C 12,2 C 97 % 1032,9 hPa 0,0 l/m 0 min 0 min 61 W/m 0,0 km/h (0 Bft) 100,00 %
25.05.2020 07:46 12,9 C 12,8 C 12,2 C 97 % 1033,0 hPa 0,0 l/m 0 min 0 min 60 W/m 0,0 km/h (0 Bft) 97,87 %
25.05.2020 07:48 12,9 C 12,8 C 12,2 C 97 % 1032,9 hPa 0,0 l/m 0 min 0 min 61 W/m 6,4 km/h (2 Bft) 100,00 %
25.05.2020 07:50 13,0 C 12,8 C 12,2 C 97 % 1032,9 hPa 0,0 l/m 0 min 0 min 62 W/m 3,2 km/h (1 Bft) 100,00 %
25.05.2020 07:52 13,0 C 12,8 C 12,2 C 96 % 1033,0 hPa 0,0 l/m 0 min 0 min 64 W/m 3,2 km/h (1 Bft) 97,87 %
25.05.2020 07:54 13,0 C 13,3 C 12,2 C 96 % 1033,0 hPa 0,0 l/m 0 min 0 min 66 W/m 6,4 km/h (2 Bft) 100,00 %
25.05.2020 07:56 13,1 C 13,3 C 12,2 C 96 % 1033,1 hPa 0,0 l/m 0 min 0 min 69 W/m 0,0 km/h (0 Bft) 93,62 %
25.05.2020 07:58 13,1 C 13,3 C 12,2 C 96 % 1033,1 hPa 0,0 l/m 0 min 0 min 72 W/m 0,0 km/h (0 Bft) 100,00 %
25.05.2020 08:00 13,1 C 13,3 C 12,2 C 96 % 1033,1 hPa 0,0 l/m 0 min 0 min 74 W/m 0,0 km/h (0 Bft) 97,87 %
25.05.2020 08:02 13,1 C 13,3 C 12,2 C 96 % 1033,0 hPa 0,0 l/m 0 min 0 min 72 W/m 3,2 km/h (1 Bft) 97,87 %
25.05.2020 08:04 13,1 C 13,3 C 12,2 C 96 % 1033,1 hPa 0,0 l/m 0 min 0 min 71 W/m 6,4 km/h (2 Bft) 97,83 %
25.05.2020 08:06 13,2 C 13,3 C 12,2 C 96 % 1033,1 hPa 0,0 l/m 0 min 0 min 68 W/m 12,9 km/h (3 Bft) 97,87 %
25.05.2020 08:08 13,2 C 13,3 C 12,2 C 96 % 1033,1 hPa 0,0 l/m 0 min 0 min 65 W/m 0,0 km/h (0 Bft) 95,74 %
25.05.2020 08:10 13,2 C 13,3 C 12,2 C 96 % 1033,1 hPa 0,0 l/m 0 min 0 min 65 W/m 0,0 km/h (0 Bft) 97,87 %
25.05.2020 08:12 13,2 C 13,3 C 12,2 C 96 % 1033,2 hPa 0,0 l/m 0 min 0 min 68 W/m 0,0 km/h (0 Bft) 97,87 %
25.05.2020 08:14 13,2 C 13,3 C 12,2 C 96 % 1033,1 hPa 0,0 l/m 0 min 0 min 69 W/m 3,2 km/h (1 Bft) 97,87 %
25.05.2020 08:16 13,2 C 13,3 C 12,2 C 96 % 1033,2 hPa 0,0 l/m 0 min 0 min 72 W/m 3,2 km/h (1 Bft) 95,65 %
25.05.2020 08:18 13,2 C 13,3 C 12,2 C 96 % 1033,2 hPa 0,0 l/m 0 min 0 min 74 W/m 0,0 km/h (0 Bft) 97,87 %
25.05.2020 08:20 13,3 C 13,3 C 12,2 C 96 % 1033,2 hPa 0,0 l/m 0 min 0 min 76 W/m 3,2 km/h (1 Bft) 97,87 %
25.05.2020 08:22 13,3 C 13,3 C 12,2 C 96 % 1033,2 hPa 0,0 l/m 0 min 0 min 77 W/m 6,4 km/h (2 Bft) 97,87 %
25.05.2020 08:24 13,3 C 13,3 C 12,2 C 96 % 1033,3 hPa 0,0 l/m 0 min 0 min 77 W/m 0,0 km/h (0 Bft) 97,87 %
25.05.2020 08:26 13,3 C 13,3 C 12,8 C 96 % 1033,3 hPa 0,0 l/m 0 min 0 min 78 W/m 3,2 km/h (1 Bft) 97,87 %
25.05.2020 08:28 13,3 C 13,3 C 12,8 C 96 % 1033,2 hPa 0,0 l/m 0 min 0 min 82 W/m 3,2 km/h (1 Bft) 97,83 %
25.05.2020 08:30 13,3 C 13,3 C 12,8 C 96 % 1033,2 hPa 0,0 l/m 0 min 0 min 84 W/m 3,2 km/h (1 Bft) 97,87 %
25.05.2020 08:32 13,3 C 13,9 C 12,8 C 96 % 1033,2 hPa 0,0 l/m 0 min 0 min 87 W/m 3,2 km/h (1 Bft) 93,62 %
25.05.2020 08:34 13,4 C 13,9 C 12,8 C 96 % 1033,2 hPa 0,0 l/m 0 min 0 min 91 W/m 3,2 km/h (1 Bft) 97,87 %
25.05.2020 08:36 13,4 C 13,9 C 12,8 C 96 % 1033,2 hPa 0,0 l/m 0 min 0 min 97 W/m 3,2 km/h (1 Bft) 97,87 %
25.05.2020 08:38 13,4 C 13,9 C 12,8 C 96 % 1033,2 hPa 0,0 l/m 0 min 0 min 99 W/m 3,2 km/h (1 Bft) 95,74 %
25.05.2020 08:40 13,4 C 13,9 C 12,8 C 96 % 1033,3 hPa 0,0 l/m 0 min 0 min 102 W/m 3,2 km/h (1 Bft) 97,83 %
25.05.2020 08:42 13,5 C 13,9 C 12,8 C 96 % 1033,3 hPa 0,0 l/m 0 min 0 min 105 W/m 3,2 km/h (1 Bft) 97,87 %
25.05.2020 08:44 13,5 C 13,9 C 12,8 C 96 % 1033,3 hPa 0,0 l/m 0 min 0 min 110 W/m 12,9 km/h (3 Bft) 95,74 %
25.05.2020 08:46 13,5 C 13,9 C 12,8 C 96 % 1033,3 hPa 0,0 l/m 0 min 0 min 116 W/m 3,2 km/h (1 Bft) 97,87 %
25.05.2020 08:48 13,6 C 13,9 C 12,8 C 95 % 1033,4 hPa 0,0 l/m 0 min 0 min 124 W/m 0,0 km/h (0 Bft) 100,00 %
25.05.2020 08:50 13,6 C 14,4 C 12,8 C 95 % 1033,3 hPa 0,0 l/m 0 min 0 min 131 W/m 3,2 km/h (1 Bft) 97,87 %
25.05.2020 08:52 13,6 C 14,4 C 12,8 C 95 % 1033,3 hPa 0,0 l/m 0 min 0 min 138 W/m 3,2 km/h (1 Bft) 100,00 %
25.05.2020 08:54 13,7 C 14,4 C 13,3 C 95 % 1033,3 hPa 0,0 l/m 0 min 0 min 145 W/m 3,2 km/h (1 Bft) 100,00 %
25.05.2020 08:56 13,7 C 14,4 C 13,3 C 95 % 1033,3 hPa 0,0 l/m 0 min 0 min 149 W/m 6,4 km/h (2 Bft) 100,00 %
25.05.2020 08:58 13,7 C 14,4 C 13,3 C 95 % 1033,4 hPa 0,0 l/m 0 min 0 min 149 W/m 9,7 km/h (2 Bft) 97,87 %
25.05.2020 09:00 13,7 C 15,0 C 13,3 C 95 % 1033,4 hPa 0,0 l/m 0 min 0 min 155 W/m 3,2 km/h (1 Bft) 97,87 %
25.05.2020 09:02 13,8 C 15,0 C 13,3 C 95 % 1033,4 hPa 0,0 l/m 0 min 0 min 162 W/m 3,2 km/h (1 Bft) 100,00 %
25.05.2020 09:04 13,8 C 15,0 C 13,3 C 95 % 1033,4 hPa 0,0 l/m 0 min 0 min 172 W/m 3,2 km/h (1 Bft) 100,00 %
25.05.2020 09:06 13,9 C 15,0 C 13,3 C 95 % 1033,4 hPa 0,0 l/m 0 min 0 min 179 W/m 12,9 km/h (3 Bft) 97,87 %
25.05.2020 09:08 13,9 C 15,0 C 13,9 C 95 % 1033,4 hPa 0,0 l/m 0 min 0 min 185 W/m 6,4 km/h (2 Bft) 100,00 %
25.05.2020 09:10 14,0 C 15,0 C 13,9 C 95 % 1033,5 hPa 0,0 l/m 0 min 0 min 190 W/m 12,9 km/h (3 Bft) 100,00 %
25.05.2020 09:12 14,0 C 15,6 C 13,9 C 95 % 1033,5 hPa 0,0 l/m 0 min 0 min 200 W/m 9,7 km/h (2 Bft) 100,00 %
25.05.2020 09:14 14,1 C 15,6 C 13,9 C 95 % 1033,4 hPa 0,0 l/m 0 min 0 min 214 W/m 3,2 km/h (1 Bft) 100,00 %
25.05.2020 09:16 14,2 C 15,6 C 13,9 C 95 % 1033,4 hPa 0,0 l/m 0 min 0 min 214 W/m 6,4 km/h (2 Bft) 97,87 %
25.05.2020 09:18 14,3 C 15,6 C 13,9 C 94 % 1033,4 hPa 0,0 l/m 0 min 0 min 206 W/m 3,2 km/h (1 Bft) 100,00 %
25.05.2020 09:20 14,3 C 15,6 C 13,9 C 94 % 1033,5 hPa 0,0 l/m 0 min 0 min 205 W/m 6,4 km/h (2 Bft) 100,00 %
25.05.2020 09:22 14,3 C 16,1 C 13,9 C 94 % 1033,5 hPa 0,0 l/m 0 min 0 min 210 W/m 3,2 km/h (1 Bft) 97,44 %
25.05.2020 09:24 14,3 C 16,1 C 13,9 C 94 % 1033,4 hPa 0,0 l/m 0 min 0 min 219 W/m 9,7 km/h (2 Bft) 100,00 %
25.05.2020 09:26 14,3 C 15,6 C 13,9 C 94 % 1033,4 hPa 0,0 l/m 0 min 0 min 219 W/m 9,7 km/h (2 Bft) 97,87 %
25.05.2020 09:28 14,4 C 16,1 C 13,9 C 93 % 1033,5 hPa 0,0 l/m 0 min 0 min 219 W/m 9,7 km/h (2 Bft) 95,74 %
25.05.2020 09:30 14,4 C 16,1 C 14,4 C 93 % 1033,5 hPa 0,0 l/m 0 min 0 min 230 W/m 3,2 km/h (1 Bft) 97,87 %
25.05.2020 09:32 14,5 C 16,1 C 14,4 C 93 % 1033,4 hPa 0,0 l/m 0 min 0 min 248 W/m 9,7 km/h (2 Bft) 97,83 %
25.05.2020 09:34 14,6 C 16,1 C 14,4 C 93 % 1033,5 hPa 0,0 l/m 0 min 0 min 246 W/m 16,1 km/h (3 Bft) 97,87 %
25.05.2020 09:36 14,6 C 16,1 C 14,4 C 93 % 1033,5 hPa 0,0 l/m 0 min 0 min 232 W/m 6,4 km/h (2 Bft) 97,87 %
25.05.2020 09:38 14,7 C 16,7 C 14,4 C 93 % 1033,5 hPa 0,0 l/m 0 min 0 min 232 W/m 6,4 km/h (2 Bft) 97,87 %
25.05.2020 09:40 14,8 C 16,7 C 15,0 C 92 % 1033,5 hPa 0,0 l/m 0 min 0 min 247 W/m 3,2 km/h (1 Bft) 97,87 %
25.05.2020 09:42 14,8 C 16,7 C 15,0 C 92 % 1033,5 hPa 0,0 l/m 0 min 0 min 263 W/m 6,4 km/h (2 Bft) 97,87 %
25.05.2020 09:44 14,9 C 16,7 C 15,0 C 92 % 1033,6 hPa 0,0 l/m 0 min 0 min 265 W/m 9,7 km/h (2 Bft) 97,83 %
25.05.2020 09:46 14,9 C 17,2 C 15,0 C 92 % 1033,5 hPa 0,0 l/m 0 min 0 min 263 W/m 0,0 km/h (0 Bft) 95,74 %
25.05.2020 09:48 15,0 C 17,2 C 15,0 C 92 % 1033,6 hPa 0,0 l/m 0 min 0 min 270 W/m 6,4 km/h (2 Bft) 95,74 %
25.05.2020 09:50 15,1 C 17,2 C 15,0 C 92 % 1033,6 hPa 0,0 l/m 0 min 0 min 285 W/m 12,9 km/h (3 Bft) 95,74 %
25.05.2020 09:52 15,1 C 17,2 C 15,0 C 91 % 1033,6 hPa 0,0 l/m 0 min 0 min 287 W/m 9,7 km/h (2 Bft) 93,62 %
25.05.2020 09:54 15,2 C 17,2 C 15,0 C 91 % 1033,6 hPa 0,0 l/m 0 min 0 min 277 W/m 12,9 km/h (3 Bft) 95,74 %
25.05.2020 09:56 15,2 C 17,2 C 15,6 C 91 % 1033,6 hPa 0,0 l/m 0 min 0 min 265 W/m 19,3 km/h (3 Bft) 95,65 %
25.05.2020 09:58 15,3 C 17,2 C 15,6 C 90 % 1033,6 hPa 0,0 l/m 0 min 0 min 263 W/m 3,2 km/h (1 Bft) 97,87 %
25.05.2020 10:00 15,3 C 17,8 C 15,6 C 90 % 1033,6 hPa 0,0 l/m 2 min 0 min 309 W/m 3,2 km/h (1 Bft) 91,49 %
25.05.2020 10:02 15,4 C 17,8 C 15,6 C 90 % 1033,6 hPa 0,0 l/m 2 min 0 min 331 W/m 6,4 km/h (2 Bft) 95,74 %
25.05.2020 10:04 15,5 C 18,3 C 16,1 C 90 % 1033,6 hPa 0,0 l/m 0 min 0 min 305 W/m 6,4 km/h (2 Bft) 93,88 %
25.05.2020 10:06 15,6 C 17,8 C 16,1 C 90 % 1033,7 hPa 0,0 l/m 0 min 0 min 295 W/m 9,7 km/h (2 Bft) 97,87 %
25.05.2020 10:08 15,6 C 17,8 C 16,1 C 89 % 1033,7 hPa 0,0 l/m 0 min 0 min 302 W/m 16,1 km/h (3 Bft) 95,74 %
25.05.2020 10:10 15,7 C 17,8 C 16,1 C 89 % 1033,7 hPa 0,0 l/m 0 min 0 min 309 W/m 12,9 km/h (3 Bft) 95,74 %
25.05.2020 10:12 15,7 C 17,8 C 16,1 C 89 % 1033,7 hPa 0,0 l/m 0 min 0 min 280 W/m 6,4 km/h (2 Bft) 95,74 %
25.05.2020 10:14 15,8 C 17,8 C 16,1 C 88 % 1033,7 hPa 0,0 l/m 0 min 0 min 242 W/m 3,2 km/h (1 Bft) 95,65 %
25.05.2020 10:16 15,8 C 18,3 C 16,1 C 88 % 1033,7 hPa 0,0 l/m 2 min 0 min 326 W/m 12,9 km/h (3 Bft) 93,62 %
25.05.2020 10:18 15,9 C 20,0 C 17,8 C 88 % 1033,6 hPa 0,0 l/m 2 min 0 min 381 W/m 19,3 km/h (3 Bft) 95,74 %
25.05.2020 10:20 16,0 C 20,6 C 19,4 C 88 % 1033,7 hPa 0,0 l/m 2 min 0 min 381 W/m 16,1 km/h (3 Bft) 95,74 %
25.05.2020 10:22 16,1 C 21,1 C 20,6 C 87 % 1033,7 hPa 0,0 l/m 2 min 0 min 381 W/m 9,7 km/h (2 Bft) 95,74 %
25.05.2020 10:24 16,3 C 21,1 C 20,6 C 87 % 1033,7 hPa 0,0 l/m 2 min 0 min 382 W/m 3,2 km/h (1 Bft) 95,74 %
25.05.2020 10:26 16,4 C 21,7 C 21,7 C 87 % 1033,7 hPa 0,0 l/m 2 min 0 min 406 W/m 6,4 km/h (2 Bft) 95,65 %
25.05.2020 10:28 16,6 C 23,3 C 23,3 C 86 % 1033,7 hPa 0,0 l/m 2 min 0 min 573 W/m 6,4 km/h (2 Bft) 93,62 %
25.05.2020 10:30 16,7 C 22,8 C 23,3 C 86 % 1033,7 hPa 0,0 l/m 2 min 0 min 867 W/m 9,7 km/h (2 Bft) 93,62 %
25.05.2020 10:32 16,9 C 20,6 C 21,7 C 85 % 1033,7 hPa 0,0 l/m 2 min 0 min 867 W/m 22,5 km/h (4 Bft) 93,62 %
25.05.2020 10:34 16,9 C 19,4 C 20,6 C 84 % 1033,7 hPa 0,0 l/m 0 min 0 min 334 W/m 9,7 km/h (2 Bft) 95,74 %
25.05.2020 10:36 16,9 C 18,9 C 19,4 C 83 % 1033,8 hPa 0,0 l/m 0 min 0 min 287 W/m 16,1 km/h (3 Bft) 95,74 %
25.05.2020 10:38 16,9 C 18,9 C 18,9 C 82 % 1033,8 hPa 0,0 l/m 0 min 0 min 256 W/m 12,9 km/h (3 Bft) 97,83 %
25.05.2020 10:40 17,0 C 20,0 C 19,4 C 82 % 1033,8 hPa 0,0 l/m 2 min 0 min 406 W/m 3,2 km/h (1 Bft) 97,87 %
25.05.2020 10:42 17,1 C 20,6 C 19,4 C 83 % 1033,8 hPa 0,0 l/m 2 min 0 min 388 W/m 6,4 km/h (2 Bft) 95,74 %
25.05.2020 10:44 17,2 C 21,7 C 20,6 C 84 % 1033,8 hPa 0,0 l/m 2 min 0 min 505 W/m 6,4 km/h (2 Bft) 97,87 %
25.05.2020 10:46 17,3 C 21,7 C 20,6 C 84 % 1033,8 hPa 0,0 l/m 2 min 0 min 466 W/m 9,7 km/h (2 Bft) 100,00 %
25.05.2020 10:48 17,3 C 22,2 C 20,6 C 83 % 1033,8 hPa 0,0 l/m 2 min 0 min 574 W/m 12,9 km/h (3 Bft) 97,87 %
25.05.2020 10:50 17,5 C 22,8 C 21,1 C 83 % 1033,8 hPa 0,0 l/m 2 min 0 min 702 W/m 3,2 km/h (1 Bft) 97,83 %
25.05.2020 10:52 17,6 C 22,2 C 20,6 C 83 % 1033,8 hPa 0,0 l/m 2 min 0 min 696 W/m 6,4 km/h (2 Bft) 97,87 %
25.05.2020 10:54 17,8 C 22,2 C 20,6 C 83 % 1033,8 hPa 0,0 l/m 2 min 0 min 408 W/m 3,2 km/h (1 Bft) 95,74 %
25.05.2020 10:56 17,8 C 22,8 C 20,6 C 82 % 1033,8 hPa 0,0 l/m 2 min 0 min 415 W/m 3,2 km/h (1 Bft) 97,87 %
25.05.2020 10:58 17,9 C 22,8 C 21,1 C 82 % 1033,8 hPa 0,0 l/m 2 min 0 min 491 W/m 9,7 km/h (2 Bft) 95,74 %
25.05.2020 11:00 18,1 C 21,7 C 20,6 C 82 % 1033,8 hPa 0,0 l/m 2 min 0 min 591 W/m 9,7 km/h (2 Bft) 97,83 %
25.05.2020 11:02 18,1 C 20,6 C 19,4 C 80 % 1033,8 hPa 0,0 l/m 0 min 0 min 359 W/m 12,9 km/h (3 Bft) 97,87 %
25.05.2020 11:04 18,1 C 21,1 C 19,4 C 79 % 1033,9 hPa 0,0 l/m 0 min 0 min 317 W/m 16,1 km/h (3 Bft) 95,74 %
25.05.2020 11:06 18,2 C 22,2 C 20,0 C 79 % 1033,8 hPa 0,0 l/m 0 min 0 min 320 W/m 3,2 km/h (1 Bft) 97,87 %
25.05.2020 11:08 18,2 C 22,8 C 20,6 C 79 % 1033,8 hPa 0,0 l/m 2 min 0 min 477 W/m 6,4 km/h (2 Bft) 97,87 %
25.05.2020 11:10 18,3 C 22,8 C 20,6 C 79 % 1033,8 hPa 0,0 l/m 2 min 0 min 527 W/m 3,2 km/h (1 Bft) 95,74 %
25.05.2020 11:12 18,4 C 22,8 C 20,6 C 79 % 1033,8 hPa 0,0 l/m 2 min 0 min 417 W/m 6,4 km/h (2 Bft) 97,83 %
25.05.2020 11:14 18,4 C 23,3 C 20,6 C 79 % 1033,8 hPa 0,0 l/m 2 min 0 min 437 W/m 3,2 km/h (1 Bft) 100,00 %
25.05.2020 11:16 18,6 C 22,8 C 20,0 C 79 % 1033,8 hPa 0,0 l/m 2 min 0 min 400 W/m 3,2 km/h (1 Bft) 100,00 %
25.05.2020 11:18 18,6 C 21,7 C 20,0 C 78 % 1033,8 hPa 0,0 l/m 0 min 0 min 354 W/m 6,4 km/h (2 Bft) 100,00 %
25.05.2020 11:20 18,6 C 21,1 C 19,4 C 77 % 1033,9 hPa 0,0 l/m 0 min 0 min 315 W/m 9,7 km/h (2 Bft) 97,87 %
25.05.2020 11:22 18,6 C 21,1 C 19,4 C 77 % 1033,8 hPa 0,0 l/m 2 min 0 min 408 W/m 3,2 km/h (1 Bft) 97,87 %
25.05.2020 11:24 18,7 C 21,1 C 19,4 C 78 % 1033,8 hPa 0,0 l/m 0 min 0 min 330 W/m 0,0 km/h (0 Bft) 100,00 %
25.05.2020 11:26 18,7 C 21,1 C 19,4 C 78 % 1033,8 hPa 0,0 l/m 0 min 0 min 329 W/m 6,4 km/h (2 Bft) 100,00 %
25.05.2020 11:28 18,7 C 22,2 C 19,4 C 77 % 1033,8 hPa 0,0 l/m 2 min 0 min 462 W/m 3,2 km/h (1 Bft) 100,00 %
25.05.2020 11:30 18,8 C 22,2 C 19,4 C 78 % 1033,8 hPa 0,0 l/m 2 min 0 min 431 W/m 6,4 km/h (2 Bft) 100,00 %
25.05.2020 11:32 18,8 C 21,7 C 18,9 C 78 % 1033,9 hPa 0,0 l/m 0 min 0 min 333 W/m 3,2 km/h (1 Bft) 95,74 %
25.05.2020 11:34 18,9 C 23,3 C 18,9 C 77 % 1033,8 hPa 0,0 l/m 0 min 0 min 327 W/m 6,4 km/h (2 Bft) 100,00 %
25.05.2020 11:36 19,0 C 25,6 C 19,4 C 78 % 1033,8 hPa 0,0 l/m 2 min 0 min 838 W/m 3,2 km/h (1 Bft) 100,00 %
25.05.2020 11:38 19,2 C 26,1 C 20,6 C 78 % 1033,8 hPa 0,0 l/m 2 min 0 min 793 W/m 9,7 km/h (2 Bft) 100,00 %
25.05.2020 11:40 19,3 C 25,0 C 20,6 C 77 % 1033,8 hPa 0,0 l/m 2 min 0 min 1089 W/m 6,4 km/h (2 Bft) 100,00 %
25.05.2020 11:42 19,4 C 23,3 C 20,0 C 76 % 1033,8 hPa 0,0 l/m 0 min 0 min 287 W/m 3,2 km/h (1 Bft) 100,00 %
25.05.2020 11:44 19,4 C 22,8 C 20,0 C 74 % 1033,8 hPa 0,0 l/m 0 min 0 min 360 W/m 6,4 km/h (2 Bft) 100,00 %
25.05.2020 11:46 19,5 C 23,9 C 20,6 C 75 % 1033,7 hPa 0,0 l/m 2 min 0 min 450 W/m 3,2 km/h (1 Bft) 100,00 %
25.05.2020 11:48 19,6 C 23,9 C 20,6 C 75 % 1033,7 hPa 0,0 l/m 2 min 0 min 712 W/m 12,9 km/h (3 Bft) 100,00 %
25.05.2020 11:50 19,6 C 23,3 C 20,0 C 74 % 1033,8 hPa 0,0 l/m 2 min 0 min 530 W/m 19,3 km/h (3 Bft) 100,00 %
25.05.2020 11:52 19,6 C 23,9 C 20,0 C 74 % 1033,7 hPa 0,0 l/m 2 min 0 min 541 W/m 12,9 km/h (3 Bft) 100,00 %
25.05.2020 11:54 19,7 C 25,6 C 20,6 C 74 % 1033,8 hPa 0,0 l/m 2 min 0 min 852 W/m 12,9 km/h (3 Bft) 100,00 %
25.05.2020 11:56 19,8 C 26,7 C 20,6 C 74 % 1033,8 hPa 0,0 l/m 2 min 0 min 1002 W/m 19,3 km/h (3 Bft) 97,87 %
25.05.2020 11:58 19,9 C 27,2 C 21,1 C 73 % 1033,7 hPa 0,0 l/m 2 min 0 min 1074 W/m 6,4 km/h (2 Bft) 100,00 %
25.05.2020 12:00 20,1 C 28,3 C 21,7 C 75 % 1033,7 hPa 0,0 l/m 2 min 0 min 1095 W/m 9,7 km/h (2 Bft) 97,83 %
25.05.2020 12:02 20,2 C 26,7 C 21,7 C 75 % 1033,7 hPa 0,0 l/m 2 min 0 min 839 W/m 6,4 km/h (2 Bft) 97,87 %
25.05.2020 12:04 20,3 C 25,0 C 21,1 C 72 % 1033,8 hPa 0,0 l/m 2 min 0 min 548 W/m 12,9 km/h (3 Bft) 97,87 %
25.05.2020 12:08 20,3 C 22,2 C 20,0 C 70 % 1033,8 hPa 0,0 l/m 0 min 0 min 341 W/m 16,1 km/h (3 Bft) 100,00 %
25.05.2020 12:10 20,3 C 20,6 C 19,4 C 69 % 1033,7 hPa 0,0 l/m 0 min 0 min 266 W/m 12,9 km/h (3 Bft) 100,00 %
25.05.2020 12:12 20,3 C 20,6 C 18,9 C 71 % 1033,7 hPa 0,0 l/m 0 min 0 min 217 W/m 9,7 km/h (2 Bft) 100,00 %
25.05.2020 12:14 20,2 C 20,0 C 18,9 C 69 % 1033,8 hPa 0,0 l/m 0 min 0 min 248 W/m 16,1 km/h (3 Bft) 100,00 %
25.05.2020 12:16 20,1 C 23,3 C 19,4 C 71 % 1033,7 hPa 0,0 l/m 0 min 0 min 276 W/m 6,4 km/h (2 Bft) 100,00 %
25.05.2020 12:18 20,2 C 22,8 C 19,4 C 72 % 1033,7 hPa 0,0 l/m 0 min 0 min 350 W/m 12,9 km/h (3 Bft) 100,00 %
25.05.2020 12:20 20,1 C 22,2 C 19,4 C 69 % 1033,7 hPa 0,0 l/m 0 min 0 min 385 W/m 12,9 km/h (3 Bft) 100,00 %
25.05.2020 12:22 20,1 C 21,7 C 19,4 C 70 % 1033,8 hPa 0,0 l/m 2 min 0 min 410 W/m 12,9 km/h (3 Bft) 100,00 %
25.05.2020 12:24 20,0 C 21,1 C 19,4 C 69 % 1033,7 hPa 0,0 l/m 0 min 0 min 379 W/m 16,1 km/h (3 Bft) 100,00 %
25.05.2020 12:26 20,0 C 21,1 C 19,4 C 70 % 1033,8 hPa 0,0 l/m 0 min 0 min 363 W/m 12,9 km/h (3 Bft) 100,00 %
25.05.2020 12:28 19,9 C 21,1 C 18,9 C 71 % 1033,8 hPa 0,0 l/m 0 min 0 min 377 W/m 12,9 km/h (3 Bft) 100,00 %
25.05.2020 12:30 19,9 C 21,7 C 18,9 C 71 % 1033,8 hPa 0,0 l/m 2 min 0 min 418 W/m 12,9 km/h (3 Bft) 97,87 %
25.05.2020 12:32 19,9 C 21,7 C 18,9 C 71 % 1033,7 hPa 0,0 l/m 0 min 0 min 336 W/m 9,7 km/h (2 Bft) 97,87 %
25.05.2020 12:34 19,8 C 21,1 C 18,9 C 71 % 1033,7 hPa 0,0 l/m 0 min 0 min 342 W/m 16,1 km/h (3 Bft) 97,87 %
25.05.2020 12:36 19,8 C 21,7 C 19,4 C 71 % 1033,7 hPa 0,0 l/m 2 min 0 min 424 W/m 6,4 km/h (2 Bft) 95,74 %
25.05.2020 12:38 19,8 C 22,2 C 19,4 C 71 % 1033,7 hPa 0,0 l/m 2 min 0 min 493 W/m 16,1 km/h (3 Bft) 97,83 %
25.05.2020 12:40 19,8 C 21,7 C 19,4 C 71 % 1033,7 hPa 0,0 l/m 0 min 0 min 399 W/m 22,5 km/h (4 Bft) 97,87 %
25.05.2020 12:42 19,8 C 22,8 C 19,4 C 71 % 1033,7 hPa 0,0 l/m 0 min 0 min 388 W/m 12,9 km/h (3 Bft) 95,74 %
25.05.2020 12:44 19,8 C 22,2 C 20,0 C 71 % 1033,7 hPa 0,0 l/m 0 min 0 min 384 W/m 12,9 km/h (3 Bft) 97,87 %
25.05.2020 12:46 19,8 C 22,2 C 19,4 C 72 % 1033,7 hPa 0,0 l/m 0 min 0 min 370 W/m 12,9 km/h (3 Bft) 97,87 %
25.05.2020 12:48 19,9 C 22,2 C 20,0 C 72 % 1033,8 hPa 0,0 l/m 0 min 0 min 393 W/m 6,4 km/h (2 Bft) 97,83 %
25.05.2020 12:50 19,9 C 22,2 C 19,4 C 72 % 1033,8 hPa 0,0 l/m 0 min 0 min 390 W/m 3,2 km/h (1 Bft) 97,87 %
25.05.2020 12:52 19,9 C 21,7 C 19,4 C 72 % 1033,7 hPa 0,0 l/m 0 min 0 min 220 W/m 6,4 km/h (2 Bft) 97,87 %
25.05.2020 12:54 19,9 C 20,6 C 18,9 C 72 % 1033,7 hPa 0,0 l/m 0 min 0 min 186 W/m 6,4 km/h (2 Bft) 95,74 %
25.05.2020 12:56 19,8 C 20,0 C 18,3 C 71 % 1033,7 hPa 0,0 l/m 0 min 0 min 187 W/m 6,4 km/h (2 Bft) 95,74 %
25.05.2020 12:58 19,8 C 19,4 C 18,3 C 71 % 1033,8 hPa 0,0 l/m 0 min 0 min 200 W/m 16,1 km/h (3 Bft) 95,74 %
25.05.2020 13:00 19,7 C 19,4 C 17,8 C 70 % 1033,9 hPa 0,0 l/m 0 min 0 min 257 W/m 16,1 km/h (3 Bft) 95,65 %
25.05.2020 13:02 19,6 C 20,6 C 17,8 C 70 % 1033,8 hPa 0,0 l/m 0 min 0 min 328 W/m 9,7 km/h (2 Bft) 95,74 %
25.05.2020 13:04 19,6 C 21,1 C 18,3 C 71 % 1033,8 hPa 0,0 l/m 0 min 0 min 338 W/m 12,9 km/h (3 Bft) 95,74 %
25.05.2020 13:06 19,6 C 21,1 C 18,3 C 70 % 1033,8 hPa 0,0 l/m 0 min 0 min 361 W/m 9,7 km/h (2 Bft) 95,74 %
25.05.2020 13:08 19,5 C 21,1 C 18,9 C 71 % 1033,8 hPa 0,0 l/m 0 min 0 min 325 W/m 9,7 km/h (2 Bft) 95,74 %
25.05.2020 13:10 19,5 C 20,6 C 18,3 C 71 % 1033,8 hPa 0,0 l/m 0 min 0 min 264 W/m 12,9 km/h (3 Bft) 93,62 %
25.05.2020 13:12 19,5 C 20,0 C 18,3 C 71 % 1033,8 hPa 0,0 l/m 0 min 0 min 226 W/m 9,7 km/h (2 Bft) 93,48 %
25.05.2020 13:14 19,4 C 20,0 C 18,3 C 70 % 1033,8 hPa 0,0 l/m 0 min 0 min 193 W/m 9,7 km/h (2 Bft) 95,74 %
25.05.2020 13:16 19,4 C 19,4 C 17,8 C 70 % 1033,8 hPa 0,0 l/m 0 min 0 min 178 W/m 3,2 km/h (1 Bft) 93,62 %
25.05.2020 13:18 19,3 C 19,4 C 17,8 C 70 % 1033,8 hPa 0,0 l/m 0 min 0 min 183 W/m 9,7 km/h (2 Bft) 93,62 %
25.05.2020 13:20 19,3 C 18,9 C 17,8 C 70 % 1033,8 hPa 0,0 l/m 0 min 0 min 205 W/m 9,7 km/h (2 Bft) 97,87 %
25.05.2020 13:22 19,3 C 19,4 C 17,8 C 72 % 1033,9 hPa 0,0 l/m 0 min 0 min 205 W/m 3,2 km/h (1 Bft) 97,87 %
25.05.2020 13:24 19,3 C 18,9 C 17,2 C 72 % 1033,8 hPa 0,0 l/m 0 min 0 min 190 W/m 0,0 km/h (0 Bft) 97,83 %
25.05.2020 13:26 19,2 C 18,9 C 17,2 C 72 % 1033,8 hPa 0,0 l/m 0 min 0 min 185 W/m 9,7 km/h (2 Bft) 95,74 %
25.05.2020 13:28 19,2 C 18,9 C 17,2 C 71 % 1033,9 hPa 0,0 l/m 0 min 0 min 201 W/m 6,4 km/h (2 Bft) 97,87 %
25.05.2020 13:30 19,1 C 18,9 C 17,2 C 71 % 1033,9 hPa 0,0 l/m 0 min 0 min 234 W/m 9,7 km/h (2 Bft) 95,74 %
25.05.2020 13:32 19,1 C 19,4 C 17,8 C 71 % 1033,8 hPa 0,0 l/m 0 min 0 min 310 W/m 9,7 km/h (2 Bft) 95,74 %
25.05.2020 13:34 19,1 C 20,6 C 17,8 C 72 % 1033,9 hPa 0,0 l/m 0 min 0 min 411 W/m 12,9 km/h (3 Bft) 97,87 %
25.05.2020 13:36 19,1 C 20,6 C 18,3 C 72 % 1033,9 hPa 0,0 l/m 0 min 0 min 359 W/m 9,7 km/h (2 Bft) 93,48 %
25.05.2020 13:38 19,1 C 20,6 C 18,3 C 72 % 1033,9 hPa 0,0 l/m 0 min 0 min 310 W/m 12,9 km/h (3 Bft) 95,74 %
25.05.2020 13:40 19,1 C 20,6 C 18,3 C 70 % 1033,9 hPa 0,0 l/m 0 min 0 min 267 W/m 22,5 km/h (4 Bft) 100,00 %
25.05.2020 13:42 19,1 C 20,0 C 17,8 C 71 % 1033,9 hPa 0,0 l/m 0 min 0 min 224 W/m 9,7 km/h (2 Bft) 100,00 %
25.05.2020 13:44 19,1 C 19,4 C 17,8 C 71 % 1033,9 hPa 0,0 l/m 0 min 0 min 195 W/m 9,7 km/h (2 Bft) 100,00 %
25.05.2020 13:46 19,1 C 18,9 C 17,8 C 70 % 1033,9 hPa 0,0 l/m 0 min 0 min 186 W/m 12,9 km/h (3 Bft) 93,62 %
25.05.2020 13:48 19,1 C 18,9 C 17,2 C 71 % 1033,9 hPa 0,0 l/m 0 min 0 min 189 W/m 12,9 km/h (3 Bft) 100,00 %
25.05.2020 13:50 19,0 C 18,9 C 17,2 C 71 % 1033,9 hPa 0,0 l/m 0 min 0 min 212 W/m 12,9 km/h (3 Bft) 100,00 %
25.05.2020 13:52 19,0 C 18,9 C 17,2 C 70 % 1033,9 hPa 0,0 l/m 0 min 0 min 226 W/m 12,9 km/h (3 Bft) 97,87 %
25.05.2020 13:54 18,9 C 19,4 C 17,2 C 71 % 1033,9 hPa 0,0 l/m 0 min 0 min 253 W/m 6,4 km/h (2 Bft) 97,87 %
25.05.2020 13:56 18,9 C 20,0 C 17,8 C 72 % 1033,9 hPa 0,0 l/m 0 min 0 min 280 W/m 3,2 km/h (1 Bft) 97,87 %
25.05.2020 13:58 19,0 C 20,0 C 17,8 C 71 % 1033,8 hPa 0,0 l/m 0 min 0 min 277 W/m 12,9 km/h (3 Bft) 100,00 %
25.05.2020 14:00 18,9 C 20,0 C 17,8 C 71 % 1033,8 hPa 0,0 l/m 0 min 0 min 260 W/m 3,2 km/h (1 Bft) 97,87 %
25.05.2020 14:02 19,0 C 20,0 C 17,8 C 72 % 1033,8 hPa 0,0 l/m 0 min 0 min 258 W/m 6,4 km/h (2 Bft) 95,74 %
25.05.2020 14:04 18,9 C 20,0 C 17,8 C 71 % 1033,8 hPa 0,0 l/m 0 min 0 min 277 W/m 12,9 km/h (3 Bft) 97,87 %
25.05.2020 14:06 19,0 C 20,0 C 17,8 C 71 % 1033,8 hPa 0,0 l/m 0 min 0 min 332 W/m 9,7 km/h (2 Bft) 97,87 %
25.05.2020 14:08 19,0 C 21,1 C 18,3 C 72 % 1033,8 hPa 0,0 l/m 2 min 0 min 420 W/m 12,9 km/h (3 Bft) 97,87 %
25.05.2020 14:10 19,1 C 22,2 C 18,3 C 72 % 1033,8 hPa 0,0 l/m 2 min 0 min 425 W/m 6,4 km/h (2 Bft) 97,83 %
25.05.2020 14:12 19,1 C 22,2 C 18,9 C 72 % 1033,8 hPa 0,0 l/m 0 min 0 min 394 W/m 9,7 km/h (2 Bft) 97,87 %
25.05.2020 14:14 19,2 C 21,7 C 18,9 C 72 % 1033,8 hPa 0,0 l/m 0 min 0 min 352 W/m 6,4 km/h (2 Bft) 95,74 %
25.05.2020 14:16 19,3 C 21,7 C 18,9 C 72 % 1033,9 hPa 0,0 l/m 0 min 0 min 323 W/m 9,7 km/h (2 Bft) 95,74 %
25.05.2020 14:18 19,3 C 21,7 C 18,9 C 72 % 1033,8 hPa 0,0 l/m 0 min 0 min 302 W/m 3,2 km/h (1 Bft) 97,87 %
25.05.2020 14:20 19,3 C 21,1 C 18,9 C 73 % 1033,9 hPa 0,0 l/m 0 min 0 min 271 W/m 3,2 km/h (1 Bft) 97,87 %
25.05.2020 14:22 19,4 C 20,6 C 18,3 C 72 % 1033,8 hPa 0,0 l/m 0 min 0 min 262 W/m 6,4 km/h (2 Bft) 97,83 %
25.05.2020 14:24 19,4 C 20,6 C 18,3 C 71 % 1033,9 hPa 0,0 l/m 0 min 0 min 253 W/m 3,2 km/h (1 Bft) 97,87 %
25.05.2020 14:26 19,4 C 20,6 C 18,3 C 71 % 1033,8 hPa 0,0 l/m 0 min 0 min 309 W/m 9,7 km/h (2 Bft) 97,87 %
25.05.2020 14:28 19,4 C 21,1 C 18,9 C 71 % 1033,9 hPa 0,0 l/m 0 min 0 min 368 W/m 6,4 km/h (2 Bft) 97,87 %
25.05.2020 14:30 19,5 C 22,2 C 18,9 C 71 % 1033,8 hPa 0,0 l/m 2 min 0 min 416 W/m 16,1 km/h (3 Bft) 97,83 %
25.05.2020 14:32 19,6 C 23,3 C 18,9 C 72 % 1033,8 hPa 0,0 l/m 2 min 0 min 455 W/m 6,4 km/h (2 Bft) 97,87 %
25.05.2020 14:34 19,7 C 22,8 C 19,4 C 72 % 1033,8 hPa 0,0 l/m 2 min 0 min 415 W/m 3,2 km/h (1 Bft) 97,87 %
25.05.2020 14:36 19,8 C 22,8 C 19,4 C 71 % 1033,8 hPa 0,0 l/m 0 min 0 min 397 W/m 16,1 km/h (3 Bft) 97,87 %
25.05.2020 14:38 19,8 C 22,8 C 19,4 C 71 % 1033,7 hPa 0,0 l/m 2 min 0 min 408 W/m 9,7 km/h (2 Bft) 97,87 %
25.05.2020 14:40 19,9 C 22,8 C 19,4 C 71 % 1033,8 hPa 0,0 l/m 2 min 0 min 410 W/m 6,4 km/h (2 Bft) 97,87 %
25.05.2020 14:42 19,9 C 21,7 C 18,9 C 69 % 1033,8 hPa 0,0 l/m 0 min 0 min 337 W/m 12,9 km/h (3 Bft) 95,65 %
25.05.2020 14:44 19,9 C 21,7 C 18,9 C 70 % 1033,8 hPa 0,0 l/m 0 min 0 min 282 W/m 6,4 km/h (2 Bft) 97,87 %
25.05.2020 14:46 20,0 C 21,1 C 18,9 C 70 % 1033,8 hPa 0,0 l/m 0 min 0 min 238 W/m 12,9 km/h (3 Bft) 95,74 %
25.05.2020 14:48 19,9 C 20,6 C 18,3 C 69 % 1033,8 hPa 0,0 l/m 0 min 0 min 224 W/m 6,4 km/h (2 Bft) 95,74 %
25.05.2020 14:50 19,9 C 20,6 C 18,3 C 70 % 1033,8 hPa 0,0 l/m 0 min 0 min 228 W/m 3,2 km/h (1 Bft) 95,74 %
25.05.2020 14:52 19,9 C 21,1 C 18,3 C 71 % 1033,8 hPa 0,0 l/m 0 min 0 min 286 W/m 3,2 km/h (1 Bft) 97,87 %
25.05.2020 14:54 20,0 C 22,2 C 18,3 C 71 % 1033,8 hPa 0,0 l/m 0 min 0 min 380 W/m 3,2 km/h (1 Bft) 97,83 %
25.05.2020 14:56 20,1 C 22,2 C 18,9 C 72 % 1033,8 hPa 0,0 l/m 2 min 0 min 403 W/m 3,2 km/h (1 Bft) 93,62 %
25.05.2020 14:58 20,1 C 22,8 C 18,9 C 70 % 1033,8 hPa 0,0 l/m 0 min 0 min 391 W/m 12,9 km/h (3 Bft) 97,87 %
25.05.2020 15:00 20,1 C 23,9 C 18,9 C 71 % 1033,8 hPa 0,0 l/m 2 min 0 min 439 W/m 3,2 km/h (1 Bft) 95,74 %
25.05.2020 15:02 20,2 C 25,0 C 19,4 C 72 % 1033,7 hPa 0,0 l/m 2 min 0 min 925 W/m 0,0 km/h (0 Bft) 97,87 %
25.05.2020 15:04 20,3 C 24,4 C 19,4 C 72 % 1033,7 hPa 0,0 l/m 0 min 0 min 391 W/m 3,2 km/h (1 Bft) 97,87 %
25.05.2020 15:06 20,3 C 22,8 C 19,4 C 71 % 1033,7 hPa 0,0 l/m 0 min 0 min 264 W/m 6,4 km/h (2 Bft) 97,83 %
25.05.2020 15:08 20,3 C 22,2 C 18,9 C 70 % 1033,7 hPa 0,0 l/m 0 min 0 min 269 W/m 19,3 km/h (3 Bft) 100,00 %
25.05.2020 15:10 20,3 C 21,7 C 18,9 C 69 % 1033,8 hPa 0,0 l/m 0 min 0 min 355 W/m 16,1 km/h (3 Bft) 100,00 %
25.05.2020 15:12 20,3 C 21,7 C 18,9 C 69 % 1033,8 hPa 0,0 l/m 0 min 0 min 287 W/m 6,4 km/h (2 Bft) 100,00 %
25.05.2020 15:14 20,4 C 21,1 C 18,9 C 68 % 1033,7 hPa 0,0 l/m 0 min 0 min 288 W/m 12,9 km/h (3 Bft) 100,00 %
25.05.2020 15:16 20,3 C 21,1 C 18,9 C 69 % 1033,7 hPa 0,0 l/m 0 min 0 min 195 W/m 0,0 km/h (0 Bft) 100,00 %
25.05.2020 15:18 20,3 C 20,6 C 18,9 C 69 % 1033,7 hPa 0,0 l/m 0 min 0 min 161 W/m 3,2 km/h (1 Bft) 97,83 %
25.05.2020 15:20 20,3 C 20,0 C 18,3 C 70 % 1033,7 hPa 0,0 l/m 0 min 0 min 163 W/m 9,7 km/h (2 Bft) 100,00 %
25.05.2020 15:22 20,3 C 20,0 C 18,3 C 68 % 1033,7 hPa 0,0 l/m 0 min 0 min 184 W/m 9,7 km/h (2 Bft) 100,00 %
25.05.2020 15:24 20,2 C 20,0 C 18,3 C 69 % 1033,7 hPa 0,0 l/m 0 min 0 min 240 W/m 6,4 km/h (2 Bft) 100,00 %
25.05.2020 15:26 20,2 C 20,0 C 18,3 C 69 % 1033,7 hPa 0,0 l/m 0 min 0 min 297 W/m 3,2 km/h (1 Bft) 95,74 %
25.05.2020 15:28 20,1 C 20,6 C 18,9 C 69 % 1033,7 hPa 0,0 l/m 0 min 0 min 289 W/m 3,2 km/h (1 Bft) 95,65 %
25.05.2020 15:30 20,1 C 21,1 C 18,9 C 68 % 1033,7 hPa 0,0 l/m 0 min 0 min 302 W/m 9,7 km/h (2 Bft) 95,74 %
25.05.2020 15:32 20,1 C 22,2 C 18,9 C 70 % 1033,7 hPa 0,0 l/m 0 min 0 min 353 W/m 6,4 km/h (2 Bft) 93,62 %
25.05.2020 15:34 20,2 C 22,8 C 18,9 C 70 % 1033,7 hPa 0,0 l/m 2 min 0 min 427 W/m 9,7 km/h (2 Bft) 95,74 %
25.05.2020 15:36 20,2 C 23,3 C 19,4 C 71 % 1033,6 hPa 0,0 l/m 2 min 0 min 387 W/m 0,0 km/h (0 Bft) 93,62 %
25.05.2020 15:38 20,3 C 25,0 C 19,4 C 71 % 1033,6 hPa 0,0 l/m 2 min 0 min 378 W/m 3,2 km/h (1 Bft) 95,74 %
25.05.2020 15:40 20,4 C 26,7 C 19,4 C 70 % 1033,6 hPa 0,0 l/m 2 min 0 min 429 W/m 9,7 km/h (2 Bft) 95,65 %
25.05.2020 15:42 20,6 C 27,8 C 20,0 C 69 % 1033,5 hPa 0,0 l/m 2 min 0 min 972 W/m 9,7 km/h (2 Bft) 95,74 %
25.05.2020 15:44 20,7 C 27,2 C 20,0 C 70 % 1033,5 hPa 0,0 l/m 2 min 0 min 972 W/m 9,7 km/h (2 Bft) 95,74 %
25.05.2020 15:46 20,9 C 26,7 C 20,0 C 71 % 1033,5 hPa 0,0 l/m 2 min 0 min 907 W/m 9,7 km/h (2 Bft) 95,74 %
25.05.2020 15:48 21,1 C 25,0 C 20,0 C 69 % 1033,5 hPa 0,0 l/m 0 min 0 min 317 W/m 9,7 km/h (2 Bft) 93,62 %
25.05.2020 15:50 21,1 C 23,9 C 19,4 C 68 % 1033,5 hPa 0,0 l/m 0 min 0 min 332 W/m 6,4 km/h (2 Bft) 95,74 %
25.05.2020 15:52 21,2 C 25,6 C 20,0 C 68 % 1033,6 hPa 0,0 l/m 2 min 0 min 445 W/m 6,4 km/h (2 Bft) 95,65 %
25.05.2020 15:54 21,3 C 26,7 C 20,0 C 68 % 1033,5 hPa 0,0 l/m 2 min 0 min 1016 W/m 6,4 km/h (2 Bft) 95,74 %
25.05.2020 15:56 21,5 C 26,1 C 20,0 C 67 % 1033,4 hPa 0,0 l/m 2 min 0 min 1016 W/m 12,9 km/h (3 Bft) 95,74 %
25.05.2020 15:58 21,6 C 25,6 C 19,4 C 66 % 1033,5 hPa 0,0 l/m 2 min 0 min 936 W/m 6,4 km/h (2 Bft) 95,74 %
25.05.2020 16:00 21,7 C 25,6 C 19,4 C 67 % 1033,5 hPa 0,0 l/m 0 min 0 min 353 W/m 3,2 km/h (1 Bft) 95,74 %
25.05.2020 16:02 21,8 C 26,7 C 19,4 C 66 % 1033,4 hPa 0,0 l/m 0 min 0 min 341 W/m 6,4 km/h (2 Bft) 95,74 %
25.05.2020 16:04 21,9 C 27,8 C 20,0 C 66 % 1033,4 hPa 0,0 l/m 2 min 0 min 983 W/m 12,9 km/h (3 Bft) 95,65 %
25.05.2020 16:06 22,1 C 28,9 C 20,0 C 66 % 1033,4 hPa 0,0 l/m 2 min 0 min 999 W/m 9,7 km/h (2 Bft) 93,62 %
25.05.2020 16:08 22,3 C 28,9 C 20,6 C 65 % 1033,3 hPa 0,0 l/m 2 min 0 min 731 W/m 12,9 km/h (3 Bft) 95,74 %
25.05.2020 16:10 22,5 C 27,2 C 20,6 C 64 % 1033,4 hPa 0,0 l/m 2 min 0 min 728 W/m 16,1 km/h (3 Bft) 97,87 %
25.05.2020 16:12 22,6 C 26,1 C 20,6 C 63 % 1033,3 hPa 0,0 l/m 2 min 0 min 725 W/m 12,9 km/h (3 Bft) 97,87 %
25.05.2020 16:14 22,7 C 24,4 C 20,6 C 62 % 1033,4 hPa 0,0 l/m 2 min 0 min 739 W/m 16,1 km/h (3 Bft) 100,00 %
25.05.2020 16:16 22,6 C 23,9 C 20,0 C 61 % 1033,4 hPa 0,0 l/m 2 min 0 min 356 W/m 6,4 km/h (2 Bft) 97,83 %
25.05.2020 16:18 22,6 C 25,0 C 20,0 C 63 % 1033,4 hPa 0,0 l/m 2 min 0 min 404 W/m 9,7 km/h (2 Bft) 97,87 %
25.05.2020 16:20 22,6 C 25,0 C 20,0 C 61 % 1033,3 hPa 0,0 l/m 2 min 0 min 404 W/m 6,4 km/h (2 Bft) 100,00 %
25.05.2020 16:22 22,6 C 26,7 C 20,0 C 63 % 1033,3 hPa 0,0 l/m 2 min 0 min 658 W/m 3,2 km/h (1 Bft) 97,87 %
25.05.2020 16:24 22,7 C 27,2 C 20,0 C 63 % 1033,2 hPa 0,0 l/m 2 min 0 min 812 W/m 9,7 km/h (2 Bft) 100,00 %
25.05.2020 16:26 22,8 C 27,8 C 20,0 C 63 % 1033,3 hPa 0,0 l/m 2 min 0 min 806 W/m 3,2 km/h (1 Bft) 100,00 %
25.05.2020 16:28 22,9 C 26,7 C 20,0 C 62 % 1033,2 hPa 0,0 l/m 2 min 0 min 807 W/m 16,1 km/h (3 Bft) 100,00 %
25.05.2020 16:30 22,9 C 26,7 C 20,0 C 60 % 1033,2 hPa 0,0 l/m 2 min 0 min 814 W/m 9,7 km/h (2 Bft) 100,00 %
25.05.2020 16:32 23,0 C 26,7 C 20,0 C 60 % 1033,3 hPa 0,0 l/m 2 min 0 min 842 W/m 16,1 km/h (3 Bft) 97,87 %
25.05.2020 16:34 23,1 C 27,2 C 20,0 C 60 % 1033,2 hPa 0,0 l/m 2 min 0 min 786 W/m 6,4 km/h (2 Bft) 100,00 %
25.05.2020 16:36 23,1 C 27,8 C 20,0 C 62 % 1033,2 hPa 0,0 l/m 2 min 0 min 774 W/m 3,2 km/h (1 Bft) 100,00 %
25.05.2020 16:38 23,2 C 27,8 C 20,0 C 62 % 1033,1 hPa 0,0 l/m 2 min 0 min 776 W/m 16,1 km/h (3 Bft) 100,00 %
25.05.2020 16:40 23,3 C 27,8 C 20,0 C 61 % 1033,1 hPa 0,0 l/m 2 min 0 min 776 W/m 19,3 km/h (3 Bft) 100,00 %
25.05.2020 16:42 23,3 C 26,1 C 20,0 C 58 % 1033,1 hPa 0,0 l/m 2 min 0 min 756 W/m 9,7 km/h (2 Bft) 100,00 %
25.05.2020 16:44 23,3 C 25,6 C 20,0 C 59 % 1033,2 hPa 0,0 l/m 2 min 0 min 782 W/m 16,1 km/h (3 Bft) 100,00 %
25.05.2020 16:46 23,3 C 25,0 C 20,0 C 59 % 1033,1 hPa 0,0 l/m 2 min 0 min 809 W/m 6,4 km/h (2 Bft) 100,00 %
25.05.2020 16:48 23,3 C 26,1 C 20,0 C 58 % 1033,1 hPa 0,0 l/m 2 min 0 min 776 W/m 12,9 km/h (3 Bft) 100,00 %
25.05.2020 16:50 23,3 C 26,7 C 20,0 C 58 % 1033,1 hPa 0,0 l/m 2 min 0 min 761 W/m 9,7 km/h (2 Bft) 100,00 %
25.05.2020 16:52 23,3 C 26,7 C 20,6 C 57 % 1033,0 hPa 0,0 l/m 2 min 0 min 758 W/m 12,9 km/h (3 Bft) 97,83 %
25.05.2020 16:54 23,3 C 26,7 C 20,6 C 57 % 1033,1 hPa 0,0 l/m 2 min 0 min 753 W/m 12,9 km/h (3 Bft) 100,00 %
25.05.2020 16:56 23,4 C 27,8 C 20,6 C 60 % 1033,1 hPa 0,0 l/m 2 min 0 min 805 W/m 6,4 km/h (2 Bft) 100,00 %
25.05.2020 16:58 23,5 C 28,9 C 21,1 C 59 % 1033,1 hPa 0,0 l/m 2 min 0 min 883 W/m 9,7 km/h (2 Bft) 100,00 %
25.05.2020 17:00 23,7 C 28,9 C 21,1 C 60 % 1033,1 hPa 0,0 l/m 2 min 0 min 876 W/m 12,9 km/h (3 Bft) 97,87 %
25.05.2020 17:02 23,8 C 29,4 C 21,7 C 59 % 1033,1 hPa 0,0 l/m 2 min 0 min 834 W/m 6,4 km/h (2 Bft) 97,87 %
25.05.2020 17:04 24,0 C 29,4 C 21,7 C 59 % 1033,1 hPa 0,0 l/m 2 min 0 min 837 W/m 6,4 km/h (2 Bft) 100,00 %
25.05.2020 17:06 24,2 C 28,9 C 21,7 C 58 % 1033,1 hPa 0,0 l/m 2 min 0 min 837 W/m 6,4 km/h (2 Bft) 97,87 %
25.05.2020 17:08 24,3 C 28,3 C 21,7 C 56 % 1033,1 hPa 0,0 l/m 2 min 0 min 835 W/m 12,9 km/h (3 Bft) 100,00 %
25.05.2020 17:10 24,4 C 27,8 C 21,7 C 55 % 1033,1 hPa 0,0 l/m 2 min 0 min 834 W/m 19,3 km/h (3 Bft) 97,87 %
25.05.2020 17:12 24,3 C 26,7 C 21,1 C 54 % 1033,1 hPa 0,0 l/m 2 min 0 min 833 W/m 19,3 km/h (3 Bft) 100,00 %
25.05.2020 17:14 24,3 C 28,3 C 21,7 C 57 % 1033,1 hPa 0,0 l/m 2 min 0 min 608 W/m 0,0 km/h (0 Bft) 100,00 %
25.05.2020 17:16 24,4 C 28,3 C 21,7 C 56 % 1033,1 hPa 0,0 l/m 2 min 0 min 604 W/m 16,1 km/h (3 Bft) 100,00 %
25.05.2020 17:18 24,6 C 28,9 C 21,7 C 57 % 1033,1 hPa 0,0 l/m 2 min 0 min 819 W/m 12,9 km/h (3 Bft) 97,87 %
25.05.2020 17:20 24,7 C 28,3 C 21,7 C 57 % 1033,1 hPa 0,0 l/m 2 min 0 min 822 W/m 9,7 km/h (2 Bft) 97,87 %
25.05.2020 17:22 24,7 C 26,1 C 21,7 C 55 % 1033,1 hPa 0,0 l/m 2 min 0 min 426 W/m 0,0 km/h (0 Bft) 95,74 %
25.05.2020 17:24 24,6 C 25,0 C 21,1 C 56 % 1033,2 hPa 0,0 l/m 0 min 0 min 239 W/m 3,2 km/h (1 Bft) 100,00 %
25.05.2020 17:26 24,4 C 23,9 C 21,1 C 56 % 1033,1 hPa 0,0 l/m 0 min 0 min 188 W/m 6,4 km/h (2 Bft) 97,87 %
25.05.2020 17:28 24,3 C 22,8 C 20,6 C 54 % 1033,1 hPa 0,0 l/m 0 min 0 min 139 W/m 9,7 km/h (2 Bft) 97,83 %
25.05.2020 17:30 24,1 C 21,7 C 20,6 C 55 % 1033,1 hPa 0,0 l/m 0 min 0 min 121 W/m 6,4 km/h (2 Bft) 97,87 %
25.05.2020 17:32 23,9 C 21,1 C 20,0 C 54 % 1033,1 hPa 0,0 l/m 0 min 0 min 118 W/m 9,7 km/h (2 Bft) 100,00 %
25.05.2020 17:34 23,6 C 21,1 C 20,0 C 56 % 1033,2 hPa 0,0 l/m 0 min 0 min 104 W/m 3,2 km/h (1 Bft) 97,87 %
25.05.2020 17:36 23,4 C 20,6 C 19,4 C 56 % 1033,2 hPa 0,0 l/m 0 min 0 min 114 W/m 9,7 km/h (2 Bft) 97,87 %
25.05.2020 17:38 23,2 C 21,1 C 19,4 C 56 % 1033,2 hPa 0,0 l/m 0 min 0 min 179 W/m 6,4 km/h (2 Bft) 97,87 %
25.05.2020 17:40 23,0 C 21,1 C 19,4 C 58 % 1033,1 hPa 0,0 l/m 0 min 0 min 183 W/m 0,0 km/h (0 Bft) 97,83 %
25.05.2020 17:42 22,8 C 21,1 C 19,4 C 58 % 1033,1 hPa 0,0 l/m 0 min 0 min 156 W/m 3,2 km/h (1 Bft) 97,87 %
25.05.2020 17:44 22,7 C 20,6 C 18,9 C 58 % 1033,1 hPa 0,0 l/m 0 min 0 min 126 W/m 3,2 km/h (1 Bft) 97,87 %
25.05.2020 17:46 22,5 C 20,6 C 18,9 C 59 % 1033,1 hPa 0,0 l/m 0 min 0 min 118 W/m 6,4 km/h (2 Bft) 97,87 %
25.05.2020 17:48 22,4 C 20,0 C 18,9 C 59 % 1033,1 hPa 0,0 l/m 0 min 0 min 122 W/m 6,4 km/h (2 Bft) 97,87 %
25.05.2020 17:50 22,3 C 20,6 C 18,9 C 60 % 1033,2 hPa 0,0 l/m 0 min 0 min 130 W/m 6,4 km/h (2 Bft) 97,87 %
25.05.2020 17:52 22,1 C 20,6 C 18,9 C 60 % 1033,1 hPa 0,0 l/m 0 min 0 min 158 W/m 3,2 km/h (1 Bft) 97,83 %
25.05.2020 17:54 22,0 C 20,6 C 18,9 C 60 % 1033,1 hPa 0,0 l/m 0 min 0 min 178 W/m 16,1 km/h (3 Bft) 97,87 %
25.05.2020 17:56 21,8 C 20,6 C 18,9 C 59 % 1033,2 hPa 0,0 l/m 0 min 0 min 165 W/m 16,1 km/h (3 Bft) 97,87 %
25.05.2020 17:58 21,7 C 22,2 C 18,9 C 59 % 1033,2 hPa 0,0 l/m 2 min 0 min 415 W/m 12,9 km/h (3 Bft) 95,74 %
25.05.2020 18:00 21,7 C 23,9 C 18,9 C 61 % 1033,2 hPa 0,0 l/m 2 min 0 min 592 W/m 3,2 km/h (1 Bft) 95,74 %
25.05.2020 18:02 21,6 C 22,8 C 18,9 C 61 % 1033,2 hPa 0,0 l/m 2 min 0 min 515 W/m 6,4 km/h (2 Bft) 95,65 %
25.05.2020 18:04 21,6 C 22,2 C 18,9 C 61 % 1033,2 hPa 0,0 l/m 0 min 0 min 165 W/m 6,4 km/h (2 Bft) 93,62 %
25.05.2020 18:08 21,6 C 21,1 C 18,9 C 62 % 1033,2 hPa 0,0 l/m 0 min 0 min 153 W/m 6,4 km/h (2 Bft) 93,62 %
25.05.2020 18:10 21,4 C 21,1 C 18,9 C 60 % 1033,2 hPa 0,0 l/m 0 min 0 min 204 W/m 12,9 km/h (3 Bft) 95,74 %
25.05.2020 18:12 21,4 C 22,8 C 18,9 C 62 % 1033,2 hPa 0,0 l/m 2 min 0 min 345 W/m 6,4 km/h (2 Bft) 93,62 %
25.05.2020 18:14 21,4 C 22,2 C 18,9 C 61 % 1033,1 hPa 0,0 l/m 2 min 0 min 548 W/m 12,9 km/h (3 Bft) 95,65 %
25.05.2020 18:16 21,4 C 21,1 C 18,9 C 60 % 1033,1 hPa 0,0 l/m 2 min 0 min 402 W/m 12,9 km/h (3 Bft) 95,74 %
25.05.2020 18:18 21,3 C 21,7 C 18,9 C 60 % 1033,2 hPa 0,0 l/m 0 min 0 min 178 W/m 19,3 km/h (3 Bft) 93,62 %
25.05.2020 18:20 21,3 C 22,8 C 18,9 C 61 % 1033,2 hPa 0,0 l/m 2 min 0 min 375 W/m 12,9 km/h (3 Bft) 97,87 %
25.05.2020 18:22 21,3 C 23,3 C 18,9 C 61 % 1033,2 hPa 0,0 l/m 2 min 0 min 476 W/m 6,4 km/h (2 Bft) 93,62 %
25.05.2020 18:24 21,4 C 23,3 C 18,9 C 60 % 1033,2 hPa 0,0 l/m 2 min 0 min 460 W/m 12,9 km/h (3 Bft) 91,49 %
25.05.2020 18:26 21,4 C 23,3 C 18,9 C 61 % 1033,1 hPa 0,0 l/m 2 min 0 min 451 W/m 6,4 km/h (2 Bft) 95,65 %
25.05.2020 18:28 21,5 C 23,9 C 18,9 C 61 % 1033,2 hPa 0,0 l/m 2 min 0 min 449 W/m 9,7 km/h (2 Bft) 93,62 %
25.05.2020 18:30 21,6 C 23,9 C 18,9 C 61 % 1033,2 hPa 0,0 l/m 2 min 0 min 447 W/m 9,7 km/h (2 Bft) 93,62 %
25.05.2020 18:32 21,7 C 23,9 C 18,9 C 61 % 1033,2 hPa 0,0 l/m 2 min 0 min 447 W/m 9,7 km/h (2 Bft) 92,86 %
25.05.2020 18:34 21,7 C 23,3 C 18,9 C 60 % 1033,2 hPa 0,0 l/m 2 min 0 min 439 W/m 12,9 km/h (3 Bft) 93,62 %
25.05.2020 18:36 21,8 C 22,8 C 18,9 C 59 % 1033,3 hPa 0,0 l/m 2 min 0 min 429 W/m 25,7 km/h (4 Bft) 93,48 %
25.05.2020 18:38 21,8 C 23,3 C 18,9 C 60 % 1033,3 hPa 0,0 l/m 2 min 0 min 420 W/m 6,4 km/h (2 Bft) 95,74 %
25.05.2020 18:40 21,9 C 22,8 C 18,9 C 60 % 1033,3 hPa 0,0 l/m 2 min 0 min 381 W/m 12,9 km/h (3 Bft) 95,74 %
25.05.2020 18:42 21,9 C 22,2 C 18,9 C 59 % 1033,3 hPa 0,0 l/m 2 min 0 min 418 W/m 9,7 km/h (2 Bft) 95,74 %
25.05.2020 18:44 21,9 C 22,2 C 18,9 C 59 % 1033,3 hPa 0,0 l/m 2 min 0 min 409 W/m 6,4 km/h (2 Bft) 97,87 %
25.05.2020 18:46 21,9 C 22,2 C 18,9 C 59 % 1033,3 hPa 0,0 l/m 2 min 0 min 394 W/m 6,4 km/h (2 Bft) 97,87 %
25.05.2020 18:48 21,9 C 21,7 C 18,3 C 60 % 1033,3 hPa 0,0 l/m 0 min 0 min 146 W/m 3,2 km/h (1 Bft) 95,65 %
25.05.2020 18:50 21,9 C 20,6 C 18,3 C 59 % 1033,3 hPa 0,0 l/m 0 min 0 min 103 W/m 3,2 km/h (1 Bft) 95,74 %
25.05.2020 18:52 21,8 C 20,6 C 18,3 C 59 % 1033,3 hPa 0,0 l/m 2 min 0 min 216 W/m 6,4 km/h (2 Bft) 97,87 %
25.05.2020 18:54 21,8 C 21,1 C 18,3 C 60 % 1033,3 hPa 0,0 l/m 2 min 0 min 391 W/m 6,4 km/h (2 Bft) 97,87 %
25.05.2020 18:56 21,8 C 21,7 C 18,3 C 61 % 1033,3 hPa 0,0 l/m 2 min 0 min 354 W/m 3,2 km/h (1 Bft) 97,87 %
25.05.2020 18:58 21,7 C 21,1 C 18,3 C 60 % 1033,3 hPa 0,0 l/m 2 min 0 min 247 W/m 12,9 km/h (3 Bft) 97,87 %
25.05.2020 19:00 21,7 C 20,6 C 18,3 C 60 % 1033,3 hPa 0,0 l/m 0 min 0 min 65 W/m 3,2 km/h (1 Bft) 97,83 %
25.05.2020 19:02 21,6 C 20,0 C 17,8 C 60 % 1033,3 hPa 0,0 l/m 0 min 0 min 84 W/m 6,4 km/h (2 Bft) 97,87 %
25.05.2020 19:04 21,5 C 20,0 C 17,8 C 60 % 1033,3 hPa 0,0 l/m 0 min 0 min 169 W/m 12,9 km/h (3 Bft) 97,87 %
25.05.2020 19:06 21,4 C 20,0 C 17,8 C 60 % 1033,4 hPa 0,0 l/m 0 min 0 min 162 W/m 3,2 km/h (1 Bft) 97,87 %
25.05.2020 19:08 21,3 C 20,0 C 17,8 C 61 % 1033,3 hPa 0,0 l/m 2 min 0 min 170 W/m 0,0 km/h (0 Bft) 95,74 %
25.05.2020 19:10 21,3 C 20,6 C 17,8 C 61 % 1033,4 hPa 0,0 l/m 2 min 0 min 305 W/m 3,2 km/h (1 Bft) 97,83 %
25.05.2020 19:12 21,2 C 20,0 C 17,8 C 60 % 1033,4 hPa 0,0 l/m 2 min 0 min 282 W/m 6,4 km/h (2 Bft) 97,87 %
25.05.2020 19:14 21,1 C 20,0 C 17,2 C 60 % 1033,3 hPa 0,0 l/m 2 min 0 min 271 W/m 6,4 km/h (2 Bft) 95,74 %
25.05.2020 19:16 21,1 C 20,0 C 17,2 C 60 % 1033,3 hPa 0,0 l/m 2 min 0 min 276 W/m 3,2 km/h (1 Bft) 97,87 %
25.05.2020 19:18 21,1 C 20,0 C 17,2 C 61 % 1033,4 hPa 0,0 l/m 2 min 0 min 275 W/m 6,4 km/h (2 Bft) 97,87 %
25.05.2020 19:20 21,0 C 20,0 C 17,2 C 60 % 1033,4 hPa 0,0 l/m 2 min 0 min 271 W/m 6,4 km/h (2 Bft) 97,87 %
25.05.2020 19:22 20,9 C 20,0 C 17,2 C 61 % 1033,4 hPa 0,0 l/m 2 min 0 min 261 W/m 3,2 km/h (1 Bft) 100,00 %
25.05.2020 19:24 20,9 C 20,0 C 17,2 C 61 % 1033,4 hPa 0,0 l/m 2 min 0 min 259 W/m 6,4 km/h (2 Bft) 100,00 %
25.05.2020 19:26 20,8 C 19,4 C 17,2 C 61 % 1033,4 hPa 0,0 l/m 2 min 0 min 257 W/m 12,9 km/h (3 Bft) 100,00 %
25.05.2020 19:28 20,7 C 19,4 C 17,2 C 61 % 1033,4 hPa 0,0 l/m 2 min 0 min 250 W/m 12,9 km/h (3 Bft) 97,87 %
25.05.2020 19:30 20,7 C 19,4 C 17,2 C 61 % 1033,4 hPa 0,0 l/m 2 min 0 min 236 W/m 3,2 km/h (1 Bft) 100,00 %
25.05.2020 19:32 20,6 C 18,9 C 17,2 C 62 % 1033,4 hPa 0,0 l/m 2 min 0 min 159 W/m 3,2 km/h (1 Bft) 100,00 %
25.05.2020 19:34 20,5 C 18,9 C 17,2 C 62 % 1033,4 hPa 0,0 l/m 0 min 0 min 79 W/m 6,4 km/h (2 Bft) 100,00 %
25.05.2020 19:36 20,4 C 18,9 C 17,2 C 61 % 1033,5 hPa 0,0 l/m 0 min 0 min 74 W/m 6,4 km/h (2 Bft) 100,00 %
25.05.2020 19:38 20,3 C 18,9 C 17,2 C 61 % 1033,4 hPa 0,0 l/m 0 min 0 min 70 W/m 9,7 km/h (2 Bft) 100,00 %
25.05.2020 19:40 20,3 C 18,9 C 17,2 C 61 % 1033,4 hPa 0,0 l/m 0 min 0 min 67 W/m 9,7 km/h (2 Bft) 100,00 %
25.05.2020 19:42 20,2 C 18,3 C 17,2 C 62 % 1033,5 hPa 0,0 l/m 0 min 0 min 64 W/m 6,4 km/h (2 Bft) 100,00 %
25.05.2020 19:44 20,1 C 18,3 C 17,2 C 62 % 1033,4 hPa 0,0 l/m 0 min 0 min 62 W/m 6,4 km/h (2 Bft) 100,00 %
25.05.2020 19:46 20,0 C 18,3 C 17,2 C 62 % 1033,5 hPa 0,0 l/m 0 min 0 min 60 W/m 16,1 km/h (3 Bft) 100,00 %
25.05.2020 19:48 19,9 C 18,3 C 17,2 C 63 % 1033,5 hPa 0,0 l/m 0 min 0 min 58 W/m 6,4 km/h (2 Bft) 100,00 %
25.05.2020 19:50 19,8 C 18,3 C 17,2 C 63 % 1033,5 hPa 0,0 l/m 0 min 0 min 54 W/m 3,2 km/h (1 Bft) 100,00 %
25.05.2020 19:52 19,7 C 18,3 C 17,2 C 63 % 1033,4 hPa 0,0 l/m 0 min 0 min 53 W/m 6,4 km/h (2 Bft) 97,87 %
25.05.2020 19:54 19,7 C 17,8 C 16,7 C 63 % 1033,5 hPa 0,0 l/m 0 min 0 min 53 W/m 3,2 km/h (1 Bft) 100,00 %
25.05.2020 19:56 19,6 C 17,8 C 16,7 C 63 % 1033,5 hPa 0,0 l/m 0 min 0 min 53 W/m 6,4 km/h (2 Bft) 100,00 %
25.05.2020 19:58 19,5 C 17,8 C 16,7 C 63 % 1033,4 hPa 0,0 l/m 0 min 0 min 53 W/m 6,4 km/h (2 Bft) 100,00 %
25.05.2020 20:00 19,4 C 17,8 C 16,7 C 64 % 1033,4 hPa 0,0 l/m 0 min 0 min 53 W/m 6,4 km/h (2 Bft) 97,87 %
25.05.2020 20:02 19,3 C 17,8 C 16,7 C 64 % 1033,4 hPa 0,0 l/m 0 min 0 min 49 W/m 3,2 km/h (1 Bft) 100,00 %
25.05.2020 20:04 19,3 C 17,8 C 16,7 C 64 % 1033,4 hPa 0,0 l/m 0 min 0 min 47 W/m 9,7 km/h (2 Bft) 100,00 %
25.05.2020 20:06 19,3 C 17,8 C 16,7 C 63 % 1033,4 hPa 0,0 l/m 0 min 0 min 47 W/m 16,1 km/h (3 Bft) 97,87 %
25.05.2020 20:08 19,2 C 17,8 C 16,7 C 63 % 1033,4 hPa 0,0 l/m 0 min 0 min 49 W/m 6,4 km/h (2 Bft) 100,00 %
25.05.2020 20:10 19,1 C 17,8 C 16,7 C 63 % 1033,4 hPa 0,0 l/m 0 min 0 min 46 W/m 12,9 km/h (3 Bft) 100,00 %
25.05.2020 20:12 19,1 C 17,8 C 16,7 C 63 % 1033,4 hPa 0,0 l/m 0 min 0 min 46 W/m 6,4 km/h (2 Bft) 100,00 %
25.05.2020 20:14 19,0 C 17,8 C 16,7 C 64 % 1033,4 hPa 0,0 l/m 0 min 0 min 41 W/m 6,4 km/h (2 Bft) 100,00 %
25.05.2020 20:16 18,9 C 17,8 C 16,7 C 63 % 1033,5 hPa 0,0 l/m 0 min 0 min 42 W/m 12,9 km/h (3 Bft) 100,00 %
25.05.2020 20:18 18,9 C 17,8 C 16,7 C 64 % 1033,4 hPa 0,0 l/m 0 min 0 min 41 W/m 12,9 km/h (3 Bft) 100,00 %
25.05.2020 20:20 18,8 C 17,8 C 16,7 C 64 % 1033,5 hPa 0,0 l/m 0 min 0 min 39 W/m 9,7 km/h (2 Bft) 100,00 %
25.05.2020 20:22 18,8 C 17,2 C 16,7 C 64 % 1033,5 hPa 0,0 l/m 0 min 0 min 40 W/m 9,7 km/h (2 Bft) 100,00 %
25.05.2020 20:24 18,8 C 17,2 C 16,7 C 65 % 1033,4 hPa 0,0 l/m 0 min 0 min 40 W/m 9,7 km/h (2 Bft) 100,00 %
25.05.2020 20:26 18,7 C 17,2 C 16,7 C 65 % 1033,5 hPa 0,0 l/m 0 min 0 min 39 W/m 3,2 km/h (1 Bft) 100,00 %
25.05.2020 20:28 18,7 C 17,2 C 16,7 C 65 % 1033,5 hPa 0,0 l/m 0 min 0 min 39 W/m 6,4 km/h (2 Bft) 100,00 %
25.05.2020 20:30 18,6 C 17,2 C 16,7 C 65 % 1033,5 hPa 0,0 l/m 0 min 0 min 36 W/m 6,4 km/h (2 Bft) 100,00 %
25.05.2020 20:32 18,6 C 17,2 C 16,7 C 65 % 1033,5 hPa 0,0 l/m 0 min 0 min 33 W/m 3,2 km/h (1 Bft) 95,65 %
25.05.2020 20:34 18,6 C 17,2 C 16,1 C 65 % 1033,5 hPa 0,0 l/m 0 min 0 min 31 W/m 6,4 km/h (2 Bft) 95,12 %
25.05.2020 20:36 18,4 C 17,2 C 16,1 C 65 % 1033,6 hPa 0,0 l/m 0 min 0 min 29 W/m 16,1 km/h (3 Bft) 97,87 %
25.05.2020 20:38 18,4 C 16,7 C 16,1 C 66 % 1033,7 hPa 0,0 l/m 0 min 0 min 28 W/m 6,4 km/h (2 Bft) 98,28 %
25.05.2020 20:40 18,4 C 16,7 C 16,1 C 66 % 1033,7 hPa 0,0 l/m 0 min 0 min 26 W/m 6,4 km/h (2 Bft) 94,29 %
25.05.2020 20:42 18,3 C 16,7 C 16,1 C 66 % 1033,7 hPa 0,0 l/m 0 min 0 min 26 W/m 6,4 km/h (2 Bft) 95,74 %
25.05.2020 20:44 18,3 C 16,7 C 16,1 C 66 % 1033,7 hPa 0,0 l/m 0 min 0 min 25 W/m 3,2 km/h (1 Bft) 95,74 %
25.05.2020 20:46 18,3 C 16,7 C 16,1 C 67 % 1033,7 hPa 0,0 l/m 0 min 0 min 24 W/m 3,2 km/h (1 Bft) 95,74 %
25.05.2020 20:48 18,3 C 16,7 C 16,1 C 67 % 1033,8 hPa 0,0 l/m 0 min 0 min 23 W/m 0,0 km/h (0 Bft) 95,74 %
25.05.2020 20:50 18,2 C 16,7 C 16,1 C 67 % 1033,8 hPa 0,0 l/m 0 min 0 min 21 W/m 0,0 km/h (0 Bft) 95,65 %
25.05.2020 20:52 18,2 C 16,7 C 16,1 C 67 % 1033,8 hPa 0,0 l/m 0 min 0 min 21 W/m 3,2 km/h (1 Bft) 95,74 %
25.05.2020 20:54 18,2 C 16,1 C 15,6 C 67 % 1033,8 hPa 0,0 l/m 0 min 0 min 19 W/m 0,0 km/h (0 Bft) 97,87 %
25.05.2020 20:56 18,1 C 16,1 C 15,6 C 67 % 1033,8 hPa 0,0 l/m 0 min 0 min 18 W/m 6,4 km/h (2 Bft) 95,74 %
25.05.2020 20:58 18,1 C 16,1 C 15,6 C 68 % 1033,9 hPa 0,0 l/m 0 min 0 min 18 W/m 3,2 km/h (1 Bft) 93,62 %
25.05.2020 21:00 18,0 C 16,1 C 15,6 C 68 % 1034,0 hPa 0,0 l/m 0 min 0 min 16 W/m 6,4 km/h (2 Bft) 95,65 %
25.05.2020 21:02 18,0 C 16,1 C 15,6 C 68 % 1033,9 hPa 0,0 l/m 0 min 0 min 15 W/m 9,7 km/h (2 Bft) 95,74 %
25.05.2020 21:04 17,9 C 16,1 C 15,6 C 68 % 1033,9 hPa 0,0 l/m 0 min 0 min 12 W/m 6,4 km/h (2 Bft) 92,16 %
25.05.2020 21:06 17,8 C 16,1 C 15,6 C 68 % 1033,9 hPa 0,0 l/m 0 min 0 min 12 W/m 0,0 km/h (0 Bft) 95,74 %
25.05.2020 21:08 17,8 C 16,1 C 15,6 C 68 % 1034,0 hPa 0,0 l/m 0 min 0 min 12 W/m 3,2 km/h (1 Bft) 96,55 %
25.05.2020 21:10 17,8 C 16,1 C 15,6 C 68 % 1034,0 hPa 0,0 l/m 0 min 0 min 12 W/m 3,2 km/h (1 Bft) 94,29 %
25.05.2020 21:12 17,7 C 15,6 C 15,6 C 68 % 1034,0 hPa 0,0 l/m 0 min 0 min 11 W/m 3,2 km/h (1 Bft) 95,74 %
25.05.2020 21:14 17,7 C 15,6 C 15,6 C 68 % 1034,0 hPa 0,0 l/m 0 min 0 min 9 W/m 3,2 km/h (1 Bft) 95,74 %
25.05.2020 21:16 17,6 C 15,6 C 15,6 C 68 % 1034,1 hPa 0,0 l/m 0 min 0 min 9 W/m 6,4 km/h (2 Bft) 95,74 %
25.05.2020 21:18 17,6 C 15,6 C 15,0 C 69 % 1034,1 hPa 0,0 l/m 0 min 0 min 9 W/m 0,0 km/h (0 Bft) 97,87 %
25.05.2020 21:20 17,5 C 15,6 C 15,0 C 69 % 1034,1 hPa 0,0 l/m 0 min 0 min 8 W/m 0,0 km/h (0 Bft) 97,83 %
25.05.2020 21:22 17,5 C 15,6 C 15,0 C 69 % 1034,1 hPa 0,0 l/m 0 min 0 min 7 W/m 0,0 km/h (0 Bft) 97,87 %
25.05.2020 21:24 17,4 C 15,6 C 15,0 C 70 % 1034,2 hPa 0,0 l/m 0 min 0 min 7 W/m 6,4 km/h (2 Bft) 97,87 %
25.05.2020 21:26 17,4 C 15,6 C 15,0 C 70 % 1034,2 hPa 0,0 l/m 0 min 0 min 5 W/m 3,2 km/h (1 Bft) 91,49 %
25.05.2020 21:28 17,3 C 15,6 C 15,0 C 70 % 1034,2 hPa 0,0 l/m 0 min 0 min 5 W/m 0,0 km/h (0 Bft) 97,87 %
25.05.2020 21:30 17,3 C 15,0 C 15,0 C 70 % 1034,2 hPa 0,0 l/m 0 min 0 min 3 W/m 0,0 km/h (0 Bft) 97,87 %
25.05.2020 21:32 17,3 C 15,0 C 14,4 C 70 % 1034,2 hPa 0,0 l/m 0 min 0 min 0 W/m 3,2 km/h (1 Bft) 97,83 %
25.05.2020 21:34 17,2 C 15,0 C 14,4 C 70 % 1034,3 hPa 0,0 l/m 0 min 0 min 0 W/m 3,2 km/h (1 Bft) 97,87 %
25.05.2020 21:36 17,2 C 15,0 C 14,4 C 70 % 1034,3 hPa 0,0 l/m 0 min 0 min 0 W/m 0,0 km/h (0 Bft) 97,92 %
25.05.2020 21:38 17,2 C 14,4 C 14,4 C 70 % 1034,3 hPa 0,0 l/m 0 min 0 min 0 W/m 3,2 km/h (1 Bft) 97,87 %
25.05.2020 21:40 17,1 C 14,4 C 14,4 C 70 % 1034,3 hPa 0,0 l/m 0 min 0 min 0 W/m 0,0 km/h (0 Bft) 97,87 %
25.05.2020 21:42 17,1 C 14,4 C 14,4 C 70 % 1034,3 hPa 0,0 l/m 0 min 0 min 0 W/m 0,0 km/h (0 Bft) 97,87 %
25.05.2020 21:44 17,1 C 14,4 C 13,9 C 71 % 1034,3 hPa 0,0 l/m 0 min 0 min 0 W/m 0,0 km/h (0 Bft) 95,74 %
25.05.2020 21:46 17,0 C 14,4 C 13,9 C 71 % 1034,3 hPa 0,0 l/m 0 min 0 min 0 W/m 3,2 km/h (1 Bft) 95,65 %
25.05.2020 21:48 16,9 C 14,4 C 13,9 C 71 % 1034,4 hPa 0,0 l/m 0 min 0 min 0 W/m 3,2 km/h (1 Bft) 97,87 %
25.05.2020 21:50 16,9 C 14,4 C 13,9 C 71 % 1034,3 hPa 0,0 l/m 0 min 0 min 0 W/m 3,2 km/h (1 Bft) 97,87 %
25.05.2020 21:52 16,8 C 14,4 C 13,9 C 71 % 1034,3 hPa 0,0 l/m 0 min 0 min 0 W/m 6,4 km/h (2 Bft) 97,87 %
25.05.2020 21:54 16,8 C 14,4 C 13,9 C 71 % 1034,3 hPa 0,0 l/m 0 min 0 min 0 W/m 0,0 km/h (0 Bft) 97,87 %
25.05.2020 21:56 16,7 C 14,4 C 13,9 C 71 % 1034,3 hPa 0,0 l/m 0 min 0 min 0 W/m 0,0 km/h (0 Bft) 97,87 %
25.05.2020 21:58 16,7 C 14,4 C 13,9 C 71 % 1034,4 hPa 0,0 l/m 0 min 0 min 0 W/m 0,0 km/h (0 Bft) 97,83 %
25.05.2020 22:00 16,6 C 14,4 C 13,9 C 71 % 1034,4 hPa 0,0 l/m 0 min 0 min 0 W/m 0,0 km/h (0 Bft) 97,87 %
25.05.2020 22:02 16,6 C 14,4 C 13,9 C 71 % 1034,4 hPa 0,0 l/m 0 min 0 min 0 W/m 0,0 km/h (0 Bft) 95,74 %
25.05.2020 22:04 16,5 C 14,4 C 13,9 C 71 % 1034,4 hPa 0,0 l/m 0 min 0 min 0 W/m 0,0 km/h (0 Bft) 95,74 %
25.05.2020 22:06 16,4 C 13,9 C 13,9 C 71 % 1034,4 hPa 0,0 l/m 0 min 0 min 0 W/m 0,0 km/h (0 Bft) 97,87 %
25.05.2020 22:08 16,4 C 13,9 C 13,3 C 71 % 1034,5 hPa 0,0 l/m 0 min 0 min 0 W/m 0,0 km/h (0 Bft) 97,87 %
25.05.2020 22:10 16,3 C 13,9 C 13,3 C 71 % 1034,5 hPa 0,0 l/m 0 min 0 min 0 W/m 0,0 km/h (0 Bft) 97,83 %
25.05.2020 22:12 16,3 C 13,9 C 13,3 C 72 % 1034,5 hPa 0,0 l/m 0 min 0 min 0 W/m 0,0 km/h (0 Bft) 97,87 %
25.05.2020 22:14 16,3 C 13,9 C 13,3 C 72 % 1034,5 hPa 0,0 l/m 0 min 0 min 0 W/m 0,0 km/h (0 Bft) 97,87 %
25.05.2020 22:16 16,2 C 13,9 C 13,3 C 72 % 1034,5 hPa 0,0 l/m 0 min 0 min 0 W/m 0,0 km/h (0 Bft) 97,87 %
25.05.2020 22:18 16,1 C 13,9 C 13,3 C 72 % 1034,5 hPa 0,0 l/m 0 min 0 min 0 W/m 0,0 km/h (0 Bft) 95,74 %
25.05.2020 22:20 16,1 C 13,9 C 13,3 C 72 % 1034,5 hPa 0,0 l/m 0 min 0 min 0 W/m 0,0 km/h (0 Bft) 95,65 %
25.05.2020 22:22 16,1 C 13,9 C 13,3 C 72 % 1034,5 hPa 0,0 l/m 0 min 0 min 0 W/m 0,0 km/h (0 Bft) 95,74 %
25.05.2020 22:24 16,0 C 13,9 C 13,3 C 72 % 1034,5 hPa 0,0 l/m 0 min 0 min 0 W/m 0,0 km/h (0 Bft) 97,87 %
25.05.2020 22:26 15,9 C 13,9 C 13,3 C 72 % 1034,5 hPa 0,0 l/m 0 min 0 min 0 W/m 0,0 km/h (0 Bft) 97,87 %
25.05.2020 22:28 15,9 C 13,3 C 12,8 C 72 % 1034,4 hPa 0,0 l/m 0 min 0 min 0 W/m 0,0 km/h (0 Bft) 97,87 %
25.05.2020 22:30 15,8 C 13,3 C 12,8 C 73 % 1034,4 hPa 0,0 l/m 0 min 0 min 0 W/m 0,0 km/h (0 Bft) 97,87 %
25.05.2020 22:32 15,8 C 13,3 C 12,8 C 73 % 1034,4 hPa 0,0 l/m 0 min 0 min 0 W/m 0,0 km/h (0 Bft) 97,83 %
25.05.2020 22:34 15,7 C 13,3 C 12,8 C 73 % 1034,5 hPa 0,0 l/m 0 min 0 min 0 W/m 6,4 km/h (2 Bft) 97,87 %
25.05.2020 22:36 15,7 C 13,3 C 12,8 C 73 % 1034,4 hPa 0,0 l/m 0 min 0 min 0 W/m 0,0 km/h (0 Bft) 97,87 %
25.05.2020 22:38 15,6 C 13,3 C 12,8 C 73 % 1034,5 hPa 0,0 l/m 0 min 0 min 0 W/m 0,0 km/h (0 Bft) 97,87 %
25.05.2020 22:40 15,6 C 13,3 C 12,8 C 73 % 1034,5 hPa 0,0 l/m 0 min 0 min 0 W/m 0,0 km/h (0 Bft) 97,87 %
25.05.2020 22:42 15,6 C 13,3 C 12,8 C 73 % 1034,5 hPa 0,0 l/m 0 min 0 min 0 W/m 0,0 km/h (0 Bft) 95,74 %
25.05.2020 22:44 15,5 C 13,3 C 12,8 C 74 % 1034,5 hPa 0,0 l/m 0 min 0 min 0 W/m 0,0 km/h (0 Bft) 93,48 %
25.05.2020 22:46 15,4 C 13,3 C 12,8 C 74 % 1034,5 hPa 0,0 l/m 0 min 0 min 0 W/m 0,0 km/h (0 Bft) 97,87 %
25.05.2020 22:48 15,4 C 13,3 C 12,8 C 74 % 1034,5 hPa 0,0 l/m 0 min 0 min 0 W/m 0,0 km/h (0 Bft) 97,87 %
25.05.2020 22:50 15,3 C 13,3 C 12,8 C 74 % 1034,4 hPa 0,0 l/m 0 min 0 min 0 W/m 3,2 km/h (1 Bft) 97,87 %
25.05.2020 22:52 15,3 C 13,3 C 12,8 C 75 % 1034,4 hPa 0,0 l/m 0 min 0 min 0 W/m 0,0 km/h (0 Bft) 97,87 %
25.05.2020 22:54 15,3 C 13,3 C 12,8 C 75 % 1034,4 hPa 0,0 l/m 0 min 0 min 0 W/m 0,0 km/h (0 Bft) 97,87 %
25.05.2020 22:56 15,2 C 13,3 C 12,8 C 75 % 1034,4 hPa 0,0 l/m 0 min 0 min 0 W/m 0,0 km/h (0 Bft) 100,00 %
25.05.2020 22:58 15,2 C 13,3 C 12,8 C 75 % 1034,4 hPa 0,0 l/m 0 min 0 min 0 W/m 0,0 km/h (0 Bft) 100,00 %
25.05.2020 23:00 15,1 C 13,3 C 12,8 C 75 % 1034,4 hPa 0,0 l/m 0 min 0 min 0 W/m 0,0 km/h (0 Bft) 97,87 %
25.05.2020 23:02 15,1 C 13,3 C 12,8 C 75 % 1034,4 hPa 0,0 l/m 0 min 0 min 0 W/m 0,0 km/h (0 Bft) 95,74 %
25.05.2020 23:04 15,1 C 12,8 C 12,8 C 75 % 1034,4 hPa 0,0 l/m 0 min 0 min 0 W/m 0,0 km/h (0 Bft) 100,00 %
25.05.2020 23:06 15,1 C 12,8 C 12,8 C 76 % 1034,4 hPa 0,0 l/m 0 min 0 min 0 W/m 0,0 km/h (0 Bft) 97,87 %
25.05.2020 23:08 15,0 C 12,8 C 12,2 C 76 % 1034,4 hPa 0,0 l/m 0 min 0 min 0 W/m 0,0 km/h (0 Bft) 97,83 %
25.05.2020 23:10 14,9 C 12,8 C 12,2 C 76 % 1034,4 hPa 0,0 l/m 0 min 0 min 0 W/m 0,0 km/h (0 Bft) 95,74 %
25.05.2020 23:12 14,9 C 12,8 C 12,2 C 76 % 1034,5 hPa 0,0 l/m 0 min 0 min 0 W/m 0,0 km/h (0 Bft) 97,87 %
25.05.2020 23:14 14,9 C 12,8 C 12,2 C 76 % 1034,5 hPa 0,0 l/m 0 min 0 min 0 W/m 0,0 km/h (0 Bft) 97,87 %
25.05.2020 23:16 14,8 C 12,8 C 12,2 C 76 % 1034,5 hPa 0,0 l/m 0 min 0 min 0 W/m 0,0 km/h (0 Bft) 97,87 %
25.05.2020 23:18 14,8 C 12,8 C 12,2 C 76 % 1034,5 hPa 0,0 l/m 0 min 0 min 0 W/m 0,0 km/h (0 Bft) 97,87 %
25.05.2020 23:20 14,8 C 12,8 C 12,2 C 76 % 1034,5 hPa 0,0 l/m 0 min 0 min 0 W/m 0,0 km/h (0 Bft) 95,65 %
25.05.2020 23:22 14,7 C 12,8 C 12,2 C 76 % 1034,5 hPa 0,0 l/m 0 min 0 min 0 W/m 0,0 km/h (0 Bft) 97,87 %
25.05.2020 23:24 14,7 C 12,2 C 12,2 C 76 % 1034,5 hPa 0,0 l/m 0 min 0 min 0 W/m 0,0 km/h (0 Bft) 97,87 %
25.05.2020 23:26 14,7 C 12,2 C 12,2 C 76 % 1034,5 hPa 0,0 l/m 0 min 0 min 0 W/m 0,0 km/h (0 Bft) 97,87 %
25.05.2020 23:28 14,6 C 12,2 C 12,2 C 76 % 1034,5 hPa 0,0 l/m 0 min 0 min 0 W/m 0,0 km/h (0 Bft) 97,87 %
25.05.2020 23:30 14,6 C 12,2 C 11,7 C 77 % 1034,5 hPa 0,0 l/m 0 min 0 min 0 W/m 0,0 km/h (0 Bft) 97,87 %
25.05.2020 23:32 14,5 C 12,2 C 11,7 C 77 % 1034,5 hPa 0,0 l/m 0 min 0 min 0 W/m 0,0 km/h (0 Bft) 97,83 %
25.05.2020 23:34 14,5 C 12,2 C 11,7 C 77 % 1034,5 hPa 0,0 l/m 0 min 0 min 0 W/m 0,0 km/h (0 Bft) 97,87 %
25.05.2020 23:36 14,4 C 12,2 C 11,7 C 77 % 1034,5 hPa 0,0 l/m 0 min 0 min 0 W/m 0,0 km/h (0 Bft) 97,87 %
25.05.2020 23:38 14,3 C 12,2 C 11,7 C 77 % 1034,5 hPa 0,0 l/m 0 min 0 min 0 W/m 0,0 km/h (0 Bft) 95,74 %
25.05.2020 23:40 14,3 C 12,2 C 11,7 C 77 % 1034,5 hPa 0,0 l/m 0 min 0 min 0 W/m 0,0 km/h (0 Bft) 93,62 %
25.05.2020 23:42 14,3 C 12,2 C 11,7 C 77 % 1034,5 hPa 0,0 l/m 0 min 0 min 0 W/m 0,0 km/h (0 Bft) 95,65 %
25.05.2020 23:44 14,3 C 12,2 C 11,7 C 77 % 1034,6 hPa 0,0 l/m 0 min 0 min 0 W/m 0,0 km/h (0 Bft) 97,87 %
25.05.2020 23:46 14,3 C 12,2 C 11,7 C 77 % 1034,6 hPa 0,0 l/m 0 min 0 min 0 W/m 0,0 km/h (0 Bft) 97,87 %
25.05.2020 23:48 14,3 C 12,2 C 11,7 C 77 % 1034,5 hPa 0,0 l/m 0 min 0 min 0 W/m 0,0 km/h (0 Bft) 97,87 %
25.05.2020 23:50 14,3 C 12,2 C 11,7 C 78 % 1034,5 hPa 0,0 l/m 0 min 0 min 0 W/m 0,0 km/h (0 Bft) 97,87 %
25.05.2020 23:52 14,2 C 11,7 C 11,7 C 78 % 1034,5 hPa 0,0 l/m 0 min 0 min 0 W/m 0,0 km/h (0 Bft) 95,74 %
25.05.2020 23:54 14,2 C 11,7 C 11,7 C 78 % 1034,6 hPa 0,0 l/m 0 min 0 min 0 W/m 0,0 km/h (0 Bft) 95,65 %
25.05.2020 23:56 14,1 C 11,7 C 11,7 C 78 % 1034,6 hPa 0,0 l/m 0 min 0 min 0 W/m 0,0 km/h (0 Bft) 95,74 %
25.05.2020 23:58 14,1 C 11,7 C 11,7 C 78 % 1034,6 hPa 0,0 l/m 0 min 0 min 0 W/m 0,0 km/h (0 Bft) 97,87 %
_ Min-Zeit 05:38 00:00 05:04 17:12 03:04 - - - - 00:00 00:02
Minimum _ 12,4 C 11,7 C 11,1 C 54 % 1031,8 hPa - - - - 0,0 km/h (0 Bft) 14,29 %
_ Max-Zeit 17:20 17:02 10:28 01:00 23:44 00:00 10:00 00:50 12:00 18:36 00:08
Maximum _ 24,7 C 29,4 C 23,3 C 97 % 1034,6 hPa 0,0 l/m 2 min 2 min 1095 W/m 25,7 km/h
W (4 Bft)
100,00 %
Durchschnitt _ 16,6 C 16,9 C 15,3 C 81 % 1033,2 hPa #0,0 l/m #4:50 h #4 min. 281 W/m 4,9 km/h (1 Bft) 97,35 %
© 2020 W. Hausmann